Time,TemperatureF,DewpointF,PressureIn,WindDirection,WindDirectionDegrees,WindSpeedMPH,WindSpeedGustMPH,Humidity,HourlyPrecipIn,Conditions,Clouds,dailyrainin,SoftwareType,DateUTC
2013-11-21 00:00:00,36.7,35.9,28.88,SSW,202,5.8,5.8,97,0.00,RA,,0.00,WeatherDisplay:10.37,2013-11-21 06:00:00,
2013-11-21 00:02:00,36.7,35.9,28.88,SSW,202,5.8,5.8,97,0.00,RA,,0.00,WeatherDisplay:10.37,2013-11-21 06:02:00,
2013-11-21 00:03:00,36.7,35.9,28.88,South,180,2.3,2.3,97,0.00,RA,,0.00,WeatherDisplay:10.37,2013-11-21 06:03:00,
2013-11-21 00:05:00,36.7,35.9,28.88,South,180,5.6,5.6,97,0.00,RA,,0.00,WeatherDisplay:10.37,2013-11-21 06:05:00,
2013-11-21 00:07:00,36.7,35.9,28.88,South,180,10.4,10.4,97,0.00,RA,,0.00,WeatherDisplay:10.37,2013-11-21 06:07:00,
2013-11-21 00:08:00,36.7,35.9,28.88,SSE,158,10.4,10.4,97,0.00,RA,,0.00,WeatherDisplay:10.37,2013-11-21 06:08:00,
2013-11-21 00:09:00,36.7,35.9,28.88,SSE,158,5.8,5.8,97,0.00,RA,,0.00,WeatherDisplay:10.37,2013-11-21 06:09:00,
2013-11-21 00:11:00,36.7,35.9,28.85,South,180,4.6,4.6,97,0.00,CLR,,0.00,WeatherDisplay:10.37,2013-11-21 06:11:00,
2013-11-21 00:12:00,36.7,35.9,28.85,SE,135,4.6,4.6,97,0.00,CLR,,0.00,WeatherDisplay:10.37,2013-11-21 06:12:00,
2013-11-21 00:13:00,36.7,35.9,28.85,South,180,4.6,4.6,97,0.00,CLR,,0.00,WeatherDisplay:10.37,2013-11-21 06:13:00,
2013-11-21 00:14:00,36.7,35.9,28.85,SW,225,8.1,8.1,97,0.00,CLR,,0.00,WeatherDisplay:10.37,2013-11-21 06:14:00,
2013-11-21 00:17:00,36.7,35.9,28.85,WSW,248,6.9,6.9,97,0.00,CLR,,0.00,WeatherDisplay:10.37,2013-11-21 06:17:00,
2013-11-21 00:18:00,36.7,35.9,28.85,South,180,6.9,6.9,97,0.00,CLR,,0.00,WeatherDisplay:10.37,2013-11-21 06:18:00,
2013-11-21 00:19:00,36.7,35.9,28.85,SSE,158,4.6,4.6,97,0.00,CLR,,0.00,WeatherDisplay:10.37,2013-11-21 06:19:00,
2013-11-21 00:22:00,36.7,36.2,28.85,South,180,9.2,9.2,98,0.00,CLR,,0.00,WeatherDisplay:10.37,2013-11-21 06:22:00,
2013-11-21 00:23:00,36.7,36.2,28.85,SW,225,5.8,5.8,98,0.00,CLR,,0.00,WeatherDisplay:10.37,2013-11-21 06:23:00,
2013-11-21 00:24:00,36.7,36.2,28.85,South,180,5.9,5.9,98,0.00,CLR,,0.00,WeatherDisplay:10.37,2013-11-21 06:24:00,
2013-11-21 00:27:00,36.7,36.2,28.85,South,180,4.6,4.6,98,0.00,CLR,,0.00,WeatherDisplay:10.37,2013-11-21 06:27:00,
2013-11-21 00:28:00,36.7,36.2,28.85,South,180,5.8,5.8,98,0.00,CLR,,0.00,WeatherDisplay:10.37,2013-11-21 06:28:00,
2013-11-21 00:29:00,36.7,36.2,28.85,SSE,158,5.8,5.8,98,0.00,CLR,,0.00,WeatherDisplay:10.37,2013-11-21 06:29:00,
2013-11-21 00:32:00,36.7,36.2,28.85,SSE,158,4.6,4.6,98,0.00,CLR,,0.00,WeatherDisplay:10.37,2013-11-21 06:32:00,
2013-11-21 00:33:00,36.7,36.2,28.85,SSW,202,6.9,6.9,98,0.00,CLR,,0.00,WeatherDisplay:10.37,2013-11-21 06:33:00,
2013-11-21 00:34:00,36.7,36.2,28.85,SSW,202,4.6,4.6,98,0.00,CLR,,0.00,WeatherDisplay:10.37,2013-11-21 06:34:00,
2013-11-21 00:35:00,36.7,36.2,28.85,South,182,3.0,7.0,98,0.00,CLR,,0.00,WeatherDisplay:10.37,2013-11-21 06:35:00,
2013-11-21 00:37:00,36.7,36.2,28.85,WNW,292,4.6,4.6,98,0.00,CLR,,0.00,WeatherDisplay:10.37,2013-11-21 06:37:00,
2013-11-21 00:38:00,36.7,36.2,28.85,WSW,248,4.6,4.6,98,0.00,CLR,,0.00,WeatherDisplay:10.37,2013-11-21 06:38:00,
2013-11-21 00:39:00,36.7,36.2,28.88,South,180,3.3,3.3,98,0.00,CLR,,0.00,WeatherDisplay:10.37,2013-11-21 06:39:00,
2013-11-21 00:40:00,36.7,36.2,28.88,North,0,3.5,3.5,98,0.00,CLR,,0.00,WeatherDisplay:10.37,2013-11-21 06:40:00,
2013-11-21 00:41:00,36.7,36.2,28.88,SSE,158,4.6,4.6,98,0.00,CLR,,0.00,WeatherDisplay:10.37,2013-11-21 06:41:00,
2013-11-21 00:43:00,36.7,36.2,28.88,South,180,2.4,3.1,98,0.00,CLR,,0.00,WeatherDisplay:10.37,2013-11-21 06:43:00,
2013-11-21 00:44:00,36.7,36.2,28.88,SSW,202,2.3,2.3,98,0.00,CLR,,0.00,WeatherDisplay:10.37,2013-11-21 06:44:00,
2013-11-21 00:45:00,36.7,36.2,28.88,SSE,158,2.3,2.3,98,0.00,CLR,,0.00,WeatherDisplay:10.37,2013-11-21 06:45:00,
2013-11-21 00:47:00,36.7,36.2,28.88,SSW,202,6.9,6.9,98,0.00,CLR,,0.00,WeatherDisplay:10.37,2013-11-21 06:47:00,
2013-11-21 00:48:00,36.7,36.2,28.88,South,180,4.6,4.6,98,0.00,CLR,,0.00,WeatherDisplay:10.37,2013-11-21 06:48:00,
2013-11-21 00:49:00,36.7,36.2,28.88,South,180,2.3,0.0,98,0.00,CLR,,0.00,WeatherDisplay:10.37,2013-11-21 06:49:00,
2013-11-21 00:51:00,36.7,36.2,28.88,SSW,202,2.4,2.4,98,0.00,CLR,,0.00,WeatherDisplay:10.37,2013-11-21 06:51:00,
2013-11-21 00:52:00,36.7,36.2,28.88,South,180,3.5,3.6,98,0.00,CLR,,0.00,WeatherDisplay:10.37,2013-11-21 06:52:00,
2013-11-21 00:53:00,36.7,36.2,28.88,South,180,3.5,3.6,98,0.00,CLR,,0.00,WeatherDisplay:10.37,2013-11-21 06:53:00,
2013-11-21 00:54:00,36.7,36.2,28.88,South,180,3.5,3.5,98,0.00,CLR,,0.00,WeatherDisplay:10.37,2013-11-21 06:54:00,
2013-11-21 00:55:00,36.7,36.2,28.85,SW,225,1.6,1.6,98,0.00,CLR,,0.00,WeatherDisplay:10.37,2013-11-21 06:55:00,
2013-11-21 00:56:00,36.7,36.2,28.85,SSE,158,3.1,3.1,98,0.00,CLR,,0.00,WeatherDisplay:10.37,2013-11-21 06:56:00,
2013-11-21 00:57:00,36.7,36.2,28.85,South,180,5.8,5.8,98,0.00,CLR,,0.00,WeatherDisplay:10.37,2013-11-21 06:57:00,
2013-11-21 00:59:00,36.7,36.2,28.85,SSE,158,6.2,6.2,98,0.00,CLR,,0.00,WeatherDisplay:10.37,2013-11-21 06:59:00,
2013-11-21 01:00:00,36.7,36.2,28.85,South,185,3.0,6.0,98,0.00,CLR,,0.00,WeatherDisplay:10.37,2013-11-21 07:00:00,
2013-11-21 01:01:00,36.7,36.2,28.85,SW,225,2.9,2.9,98,0.00,CLR,,0.00,WeatherDisplay:10.37,2013-11-21 07:01:00,
2013-11-21 01:03:00,36.7,36.2,28.85,SSE,158,4.6,4.6,98,0.00,CLR,,0.00,WeatherDisplay:10.37,2013-11-21 07:03:00,
2013-11-21 01:04:00,36.7,36.2,28.85,SSW,202,4.6,4.6,98,0.00,CLR,,0.00,WeatherDisplay:10.37,2013-11-21 07:04:00,
2013-11-21 01:05:00,36.7,36.2,28.85,South,180,4.9,4.9,98,0.00,CLR,,0.00,WeatherDisplay:10.37,2013-11-21 07:05:00,
2013-11-21 01:06:00,36.7,36.2,28.85,SSW,202,4.6,4.6,98,0.00,CLR,,0.00,WeatherDisplay:10.37,2013-11-21 07:06:00,
2013-11-21 01:09:00,36.7,36.2,28.85,SW,225,3.3,3.3,98,0.00,CLR,,0.00,WeatherDisplay:10.37,2013-11-21 07:09:00,
2013-11-21 01:11:00,36.7,36.2,28.88,SSW,202,5.8,5.8,98,0.00,CLR,,0.00,WeatherDisplay:10.37,2013-11-21 07:11:00,
2013-11-21 01:12:00,36.7,36.2,28.88,SSW,202,5.8,5.8,98,0.00,CLR,,0.00,WeatherDisplay:10.37,2013-11-21 07:12:00,
2013-11-21 01:14:00,36.7,36.2,28.88,SW,225,3.5,3.5,98,0.00,CLR,,0.00,WeatherDisplay:10.37,2013-11-21 07:14:00,
2013-11-21 01:16:00,36.7,36.2,28.88,SSW,202,3.5,3.6,98,0.00,CLR,,0.00,WeatherDisplay:10.37,2013-11-21 07:16:00,
2013-11-21 01:17:00,36.9,36.3,28.88,SSW,202,3.5,3.5,98,0.00,CLR,,0.00,WeatherDisplay:10.37,2013-11-21 07:17:00,
2013-11-21 01:18:00,36.9,36.3,28.88,SSE,158,2.4,2.4,98,0.00,CLR,,0.00,WeatherDisplay:10.37,2013-11-21 07:18:00,
2013-11-21 01:19:00,36.9,36.3,28.88,South,180,4.9,4.9,98,0.00,CLR,,0.00,WeatherDisplay:10.37,2013-11-21 07:19:00,
2013-11-21 01:21:00,36.9,36.3,28.88,WSW,248,4.6,4.6,98,0.00,CLR,,0.00,WeatherDisplay:10.37,2013-11-21 07:21:00,
2013-11-21 01:22:00,36.9,36.3,28.88,SSE,158,6.4,6.4,98,0.00,CLR,,0.00,WeatherDisplay:10.37,2013-11-21 07:22:00,
2013-11-21 01:23:00,36.9,36.3,28.88,SSW,202,6.9,6.9,98,0.00,CLR,,0.00,WeatherDisplay:10.37,2013-11-21 07:23:00,
2013-11-21 01:24:00,36.9,36.3,28.88,SSE,158,3.3,0.0,98,0.00,CLR,,0.00,WeatherDisplay:10.37,2013-11-21 07:24:00,
2013-11-21 01:25:00,36.9,36.3,28.88,South,187,1.0,7.0,98,0.00,CLR,,0.00,WeatherDisplay:10.37,2013-11-21 07:25:00,
2013-11-21 01:26:00,36.9,36.3,28.88,SSE,158,4.6,4.6,98,0.00,CLR,,0.00,WeatherDisplay:10.37,2013-11-21 07:26:00,
2013-11-21 01:28:00,36.9,36.3,28.88,SSW,202,4.6,4.6,98,0.00,CLR,,0.00,WeatherDisplay:10.37,2013-11-21 07:28:00,
2013-11-21 01:29:00,36.9,36.3,28.88,SW,225,3.5,3.5,98,0.00,CLR,,0.00,WeatherDisplay:10.37,2013-11-21 07:29:00,
2013-11-21 01:30:00,36.9,36.3,28.88,SSE,158,6.9,6.9,98,0.00,CLR,,0.00,WeatherDisplay:10.37,2013-11-21 07:30:00,
2013-11-21 01:31:00,36.9,36.3,28.88,SSW,202,6.9,6.9,98,0.00,CLR,,0.00,WeatherDisplay:10.37,2013-11-21 07:31:00,
2013-11-21 01:33:00,36.9,36.3,28.88,South,180,5.8,5.8,98,0.00,CLR,,0.00,WeatherDisplay:10.37,2013-11-21 07:33:00,
2013-11-21 01:34:00,36.9,36.3,28.88,South,180,6.4,6.4,98,0.00,CLR,,0.00,WeatherDisplay:10.37,2013-11-21 07:34:00,
2013-11-21 01:35:00,36.9,36.3,28.88,SSW,202,4.6,4.6,98,0.00,CLR,,0.00,WeatherDisplay:10.37,2013-11-21 07:35:00,
2013-11-21 01:38:00,36.9,36.3,28.88,WSW,248,4.6,4.6,98,0.00,CLR,,0.00,WeatherDisplay:10.37,2013-11-21 07:38:00,
2013-11-21 01:39:00,36.9,36.3,28.88,SW,225,6.9,6.9,98,0.00,CLR,,0.00,WeatherDisplay:10.37,2013-11-21 07:39:00,
2013-11-21 01:40:00,36.9,36.3,28.88,SSW,202,6.9,6.9,98,0.00,CLR,,0.00,WeatherDisplay:10.37,2013-11-21 07:40:00,
2013-11-21 01:43:00,36.9,36.3,28.88,SSW,202,4.6,4.6,98,0.00,CLR,,0.00,WeatherDisplay:10.37,2013-11-21 07:43:00,
2013-11-21 01:44:00,36.9,36.3,28.88,SSE,158,4.6,4.6,98,0.00,CLR,,0.00,WeatherDisplay:10.37,2013-11-21 07:44:00,
2013-11-21 01:45:00,36.9,36.3,28.88,SSE,158,6.4,6.4,98,0.00,CLR,,0.00,WeatherDisplay:10.37,2013-11-21 07:45:00,
2013-11-21 01:46:00,36.9,36.3,28.88,SSE,158,6.9,6.9,98,0.00,CLR,,0.00,WeatherDisplay:10.37,2013-11-21 07:46:00,
2013-11-21 01:48:00,36.9,36.3,28.88,South,180,5.8,5.8,98,0.00,CLR,,0.00,WeatherDisplay:10.37,2013-11-21 07:48:00,
2013-11-21 01:50:00,36.9,36.3,28.88,South,180,2.3,2.3,98,0.00,CLR,,0.00,WeatherDisplay:10.37,2013-11-21 07:50:00,
2013-11-21 01:51:00,36.9,36.3,28.88,SSW,202,2.9,2.9,98,0.00,CLR,,0.00,WeatherDisplay:10.37,2013-11-21 07:51:00,
2013-11-21 01:53:00,36.9,36.3,28.88,SSE,158,4.0,4.0,98,0.00,CLR,,0.00,WeatherDisplay:10.37,2013-11-21 07:53:00,
2013-11-21 01:54:00,36.9,36.3,28.88,SSW,202,5.8,5.8,98,0.00,CLR,,0.00,WeatherDisplay:10.37,2013-11-21 07:54:00,
2013-11-21 01:55:00,36.9,36.3,28.88,SSE,158,6.0,6.0,98,0.00,CLR,,0.00,WeatherDisplay:10.37,2013-11-21 07:55:00,
2013-11-21 01:56:00,36.9,36.3,28.88,SSW,202,6.0,6.0,98,0.00,CLR,,0.00,WeatherDisplay:10.37,2013-11-21 07:56:00,
2013-11-21 01:59:00,36.9,36.3,28.88,SSE,158,2.4,2.4,98,0.00,CLR,,0.00,WeatherDisplay:10.37,2013-11-21 07:59:00,
2013-11-21 02:00:00,36.9,36.3,28.88,South,180,2.3,2.3,98,0.00,CLR,,0.00,WeatherDisplay:10.37,2013-11-21 08:00:00,
2013-11-21 02:01:00,36.9,36.3,28.88,SE,135,5.8,5.8,98,0.00,CLR,,0.00,WeatherDisplay:10.37,2013-11-21 08:01:00,
2013-11-21 02:04:00,36.9,36.3,28.88,South,180,6.9,6.9,98,0.00,CLR,,0.00,WeatherDisplay:10.37,2013-11-21 08:04:00,
2013-11-21 02:05:00,36.9,36.3,28.88,SSE,158,4.7,4.7,98,0.00,CLR,,0.00,WeatherDisplay:10.37,2013-11-21 08:05:00,
2013-11-21 02:06:00,36.9,36.3,28.88,SSE,158,5.8,5.8,98,0.00,CLR,,0.00,WeatherDisplay:10.37,2013-11-21 08:06:00,
2013-11-21 02:09:00,36.9,36.3,28.88,SSW,202,3.5,3.5,98,0.00,CLR,,0.00,WeatherDisplay:10.37,2013-11-21 08:09:00,
2013-11-21 02:10:00,36.9,36.3,28.88,WSW,248,2.3,2.3,98,0.00,CLR,,0.00,WeatherDisplay:10.37,2013-11-21 08:10:00,
2013-11-21 02:11:00,36.9,36.3,28.88,WSW,248,2.9,2.9,98,0.00,CLR,,0.00,WeatherDisplay:10.37,2013-11-21 08:11:00,
2013-11-21 02:12:00,36.9,36.3,28.88,South,180,2.3,2.3,98,0.00,CLR,,0.00,WeatherDisplay:10.37,2013-11-21 08:12:00,
2013-11-21 02:14:00,36.9,36.3,28.88,South,180,0.0,0.0,98,0.00,CLR,,0.00,WeatherDisplay:10.37,2013-11-21 08:14:00,
2013-11-21 02:16:00,36.9,36.3,28.88,South,180,2.3,2.3,98,0.00,CLR,,0.00,WeatherDisplay:10.37,2013-11-21 08:16:00,
2013-11-21 02:17:00,36.9,36.3,28.88,SSE,158,2.6,2.6,98,0.00,CLR,,0.00,WeatherDisplay:10.37,2013-11-21 08:17:00,
2013-11-21 02:18:00,36.9,36.3,28.88,SSE,158,3.5,3.5,98,0.00,CLR,,0.00,WeatherDisplay:10.37,2013-11-21 08:18:00,
2013-11-21 02:19:00,36.9,36.3,28.88,WSW,248,2.3,2.3,98,0.00,CLR,,0.00,WeatherDisplay:10.37,2013-11-21 08:19:00,
2013-11-21 02:21:00,36.9,36.3,28.88,SSW,202,3.5,3.5,98,0.00,CLR,,0.00,WeatherDisplay:10.37,2013-11-21 08:21:00,
2013-11-21 02:22:00,36.9,36.3,28.88,SSE,158,3.3,3.3,98,0.00,CLR,,0.00,WeatherDisplay:10.37,2013-11-21 08:22:00,
2013-11-21 02:24:00,36.9,36.3,28.88,SSW,202,3.5,3.5,98,0.00,CLR,,0.00,WeatherDisplay:10.37,2013-11-21 08:24:00,
2013-11-21 02:25:00,36.9,36.3,28.88,SSW,202,3.6,3.6,98,0.00,CLR,,0.00,WeatherDisplay:10.37,2013-11-21 08:25:00,
2013-11-21 02:26:00,36.9,36.3,28.88,SSW,202,3.5,3.5,98,0.00,CLR,,0.00,WeatherDisplay:10.37,2013-11-21 08:26:00,
2013-11-21 02:27:00,36.9,36.3,28.88,SW,225,2.3,2.3,98,0.00,CLR,,0.00,WeatherDisplay:10.37,2013-11-21 08:27:00,
2013-11-21 02:29:00,37.0,36.5,28.88,West,270,2.2,0.0,98,0.00,CLR,,0.00,WeatherDisplay:10.37,2013-11-21 08:29:00,
2013-11-21 02:30:00,37.0,36.5,28.88,SSE,158,1.2,1.2,98,0.00,CLR,,0.00,WeatherDisplay:10.37,2013-11-21 08:30:00,
2013-11-21 02:31:00,37.0,36.5,28.88,SSW,202,2.4,2.4,98,0.00,CLR,,0.00,WeatherDisplay:10.37,2013-11-21 08:31:00,
2013-11-21 02:32:00,37.0,36.5,28.88,SW,225,2.3,2.3,98,0.00,CLR,,0.00,WeatherDisplay:10.37,2013-11-21 08:32:00,
2013-11-21 02:33:00,37.0,36.5,28.88,SSW,202,3.5,3.5,98,0.00,CLR,,0.00,WeatherDisplay:10.37,2013-11-21 08:33:00,
2013-11-21 02:35:00,37.0,36.5,28.88,South,180,3.5,3.5,98,0.00,CLR,,0.00,WeatherDisplay:10.37,2013-11-21 08:35:00,
2013-11-21 02:36:00,37.0,36.5,28.88,SSW,202,2.3,2.3,98,0.00,CLR,,0.00,WeatherDisplay:10.37,2013-11-21 08:36:00,
2013-11-21 02:37:00,37.0,36.5,28.88,SW,225,1.2,0.0,98,0.00,CLR,,0.00,WeatherDisplay:10.37,2013-11-21 08:37:00,
2013-11-21 02:38:00,37.0,36.5,28.88,SSW,202,0.0,0.0,98,0.00,CLR,,0.00,WeatherDisplay:10.37,2013-11-21 08:38:00,
2013-11-21 02:40:00,37.0,36.5,28.88,SSW,202,3.5,0.0,98,0.00,CLR,,0.00,WeatherDisplay:10.37,2013-11-21 08:40:00,
2013-11-21 02:41:00,37.0,36.5,28.88,West,270,3.5,3.5,98,0.00,CLR,,0.00,WeatherDisplay:10.37,2013-11-21 08:41:00,
2013-11-21 02:42:00,37.0,36.5,28.88,South,180,3.5,3.5,98,0.00,CLR,,0.00,WeatherDisplay:10.37,2013-11-21 08:42:00,
2013-11-21 02:43:00,37.0,36.5,28.88,SSW,202,1.2,1.2,98,0.00,CLR,,0.00,WeatherDisplay:10.37,2013-11-21 08:43:00,
2013-11-21 02:45:00,37.0,36.5,28.88,West,270,1.2,0.0,98,0.00,CLR,,0.00,WeatherDisplay:10.37,2013-11-21 08:45:00,
2013-11-21 02:46:00,37.0,36.5,28.88,SW,225,1.2,0.0,98,0.00,CLR,,0.00,WeatherDisplay:10.37,2013-11-21 08:46:00,
2013-11-21 02:47:00,37.0,36.5,28.88,SW,225,1.2,0.0,98,0.00,CLR,,0.00,WeatherDisplay:10.37,2013-11-21 08:47:00,
2013-11-21 02:48:00,37.0,36.5,28.88,SSW,202,1.2,0.0,98,0.00,CLR,,0.00,WeatherDisplay:10.37,2013-11-21 08:48:00,
2013-11-21 02:50:00,37.0,36.5,28.88,SSW,202,0.0,0.0,98,0.00,CLR,,0.00,WeatherDisplay:10.37,2013-11-21 08:50:00,
2013-11-21 02:51:00,37.0,36.5,28.88,SSW,202,0.0,0.0,98,0.00,CLR,,0.00,WeatherDisplay:10.37,2013-11-21 08:51:00,
2013-11-21 02:52:00,37.0,36.5,28.88,SSW,202,0.0,0.0,98,0.00,CLR,,0.00,WeatherDisplay:10.37,2013-11-21 08:52:00,
2013-11-21 02:53:00,37.0,36.5,28.88,SSW,202,0.0,0.0,98,0.00,CLR,,0.00,WeatherDisplay:10.37,2013-11-21 08:53:00,
2013-11-21 02:55:00,37.0,36.5,28.88,SSW,202,0.0,0.0,98,0.00,CLR,,0.00,WeatherDisplay:10.37,2013-11-21 08:55:00,
2013-11-21 02:56:00,37.0,36.5,28.88,SSW,202,0.0,0.0,98,0.00,CLR,,0.00,WeatherDisplay:10.37,2013-11-21 08:56:00,
2013-11-21 02:57:00,37.0,36.5,28.88,SSW,202,0.0,0.0,98,0.00,CLR,,0.00,WeatherDisplay:10.37,2013-11-21 08:57:00,
2013-11-21 02:58:00,37.0,36.5,28.88,SSW,202,0.0,0.0,98,0.00,CLR,,0.00,WeatherDisplay:10.37,2013-11-21 08:58:00,
2013-11-21 02:59:00,37.0,36.5,28.88,SSW,202,0.0,0.0,98,0.00,CLR,,0.00,WeatherDisplay:10.37,2013-11-21 08:59:00,
2013-11-21 03:01:00,37.0,36.5,28.88,SSW,202,0.0,0.0,98,0.00,CLR,,0.00,WeatherDisplay:10.37,2013-11-21 09:01:00,
2013-11-21 03:02:00,37.0,36.5,28.88,SSW,202,0.0,0.0,98,0.00,CLR,,0.00,WeatherDisplay:10.37,2013-11-21 09:02:00,
2013-11-21 03:03:00,37.0,36.5,28.88,SSW,202,0.0,0.0,98,0.00,CLR,,0.00,WeatherDisplay:10.37,2013-11-21 09:03:00,
2013-11-21 03:04:00,37.0,36.5,28.88,SSW,202,0.0,0.0,98,0.00,CLR,,0.00,WeatherDisplay:10.37,2013-11-21 09:04:00,
2013-11-21 03:06:00,37.0,36.5,28.88,SSW,202,0.0,0.0,98,0.00,CLR,,0.00,WeatherDisplay:10.37,2013-11-21 09:06:00,
2013-11-21 03:07:00,37.0,36.5,28.88,SSW,202,0.0,0.0,98,0.00,CLR,,0.00,WeatherDisplay:10.37,2013-11-21 09:07:00,
2013-11-21 03:08:00,37.0,36.5,28.88,South,180,0.0,0.0,98,0.00,CLR,,0.00,WeatherDisplay:10.37,2013-11-21 09:08:00,
2013-11-21 03:09:00,37.0,36.3,28.88,South,180,2.3,2.3,97,0.00,CLR,,0.00,WeatherDisplay:10.37,2013-11-21 09:09:00,
2013-11-21 03:10:00,37.0,36.3,28.88,SSW,202,2.3,0.0,97,0.00,CLR,,0.00,WeatherDisplay:10.37,2013-11-21 09:10:00,
2013-11-21 03:11:00,37.0,36.3,28.88,SSW,202,0.0,0.0,97,0.00,CLR,,0.00,WeatherDisplay:10.37,2013-11-21 09:11:00,
2013-11-21 03:12:00,37.0,36.3,28.88,SSW,202,0.0,0.0,97,0.00,CLR,,0.00,WeatherDisplay:10.37,2013-11-21 09:12:00,
2013-11-21 03:13:00,37.0,36.3,28.88,SSW,202,0.0,0.0,97,0.00,CLR,,0.00,WeatherDisplay:10.37,2013-11-21 09:13:00,
2013-11-21 03:15:00,37.0,36.3,28.88,SSW,202,0.0,0.0,97,0.00,CLR,,0.00,WeatherDisplay:10.37,2013-11-21 09:15:00,
2013-11-21 03:17:00,37.0,36.3,28.88,SSW,202,0.0,0.0,97,0.00,CLR,,0.00,WeatherDisplay:10.37,2013-11-21 09:17:00,
2013-11-21 03:18:00,37.0,36.3,28.88,SSW,202,0.0,0.0,97,0.00,CLR,,0.00,WeatherDisplay:10.37,2013-11-21 09:18:00,
2013-11-21 03:20:00,37.0,36.3,28.88,SSW,202,0.0,0.0,97,0.00,CLR,,0.00,WeatherDisplay:10.37,2013-11-21 09:20:00,
2013-11-21 03:21:00,37.0,36.3,28.88,SSW,202,0.0,0.0,97,0.00,CLR,,0.00,WeatherDisplay:10.37,2013-11-21 09:21:00,
2013-11-21 03:22:00,37.0,36.3,28.88,SSW,202,0.0,0.0,97,0.00,CLR,,0.00,WeatherDisplay:10.37,2013-11-21 09:22:00,
2013-11-21 03:25:00,37.0,36.3,28.88,SSW,202,0.0,0.0,97,0.00,CLR,,0.00,WeatherDisplay:10.37,2013-11-21 09:25:00,
2013-11-21 03:26:00,37.0,36.3,28.88,SSW,202,0.0,0.0,97,0.00,CLR,,0.00,WeatherDisplay:10.37,2013-11-21 09:26:00,
2013-11-21 03:27:00,37.0,36.3,28.88,SSW,202,0.0,0.0,97,0.00,CLR,,0.00,WeatherDisplay:10.37,2013-11-21 09:27:00,
2013-11-21 03:30:00,37.0,36.3,28.88,SSW,202,0.0,0.0,97,0.00,CLR,,0.00,WeatherDisplay:10.37,2013-11-21 09:30:00,
2013-11-21 03:31:00,37.0,36.3,28.88,SSW,202,0.0,0.0,97,0.00,CLR,,0.00,WeatherDisplay:10.37,2013-11-21 09:31:00,
2013-11-21 03:32:00,37.0,36.3,28.88,SSW,202,0.0,0.0,97,0.00,CLR,,0.00,WeatherDisplay:10.37,2013-11-21 09:32:00,
2013-11-21 03:35:00,37.0,36.3,28.88,SSW,202,0.0,0.0,97,0.00,CLR,,0.00,WeatherDisplay:10.37,2013-11-21 09:35:00,
2013-11-21 03:36:00,37.0,36.3,28.88,SSW,202,0.0,0.0,97,0.00,CLR,,0.00,WeatherDisplay:10.37,2013-11-21 09:36:00,
2013-11-21 03:37:00,37.0,36.3,28.88,SSW,202,0.0,0.0,97,0.00,CLR,,0.00,WeatherDisplay:10.37,2013-11-21 09:37:00,
2013-11-21 03:38:00,37.0,36.3,28.88,SSW,202,0.0,0.0,97,0.00,CLR,,0.00,WeatherDisplay:10.37,2013-11-21 09:38:00,
2013-11-21 03:41:00,37.0,36.3,28.88,SSE,158,0.0,0.0,97,0.00,CLR,,0.00,WeatherDisplay:10.37,2013-11-21 09:41:00,
2013-11-21 03:42:00,37.0,36.3,28.88,SSE,158,0.0,0.0,97,0.00,CLR,,0.00,WeatherDisplay:10.37,2013-11-21 09:42:00,
2013-11-21 03:43:00,37.0,36.3,28.88,SSE,158,0.0,0.0,97,0.00,CLR,,0.00,WeatherDisplay:10.37,2013-11-21 09:43:00,
2013-11-21 03:46:00,37.0,36.3,28.88,South,180,0.0,0.0,97,0.00,CLR,,0.00,WeatherDisplay:10.37,2013-11-21 09:46:00,
2013-11-21 03:47:00,37.0,36.3,28.88,South,180,0.0,0.0,97,0.00,CLR,,0.00,WeatherDisplay:10.37,2013-11-21 09:47:00,
2013-11-21 03:48:00,37.0,36.3,28.88,South,180,0.0,0.0,97,0.00,CLR,,0.00,WeatherDisplay:10.37,2013-11-21 09:48:00,
2013-11-21 03:51:00,37.0,36.3,28.88,South,180,0.0,0.0,97,0.00,CLR,,0.00,WeatherDisplay:10.37,2013-11-21 09:51:00,
2013-11-21 03:52:00,37.0,36.3,28.88,South,180,0.0,0.0,97,0.00,CLR,,0.00,WeatherDisplay:10.37,2013-11-21 09:52:00,
2013-11-21 03:53:00,37.0,36.3,28.88,South,180,0.0,0.0,97,0.00,CLR,,0.00,WeatherDisplay:10.37,2013-11-21 09:53:00,
2013-11-21 03:56:00,37.0,36.3,28.88,South,180,0.0,0.0,97,0.00,CLR,,0.00,WeatherDisplay:10.37,2013-11-21 09:56:00,
2013-11-21 03:57:00,37.0,36.3,28.88,South,180,0.0,0.0,97,0.00,CLR,,0.00,WeatherDisplay:10.37,2013-11-21 09:57:00,
2013-11-21 03:58:00,37.0,36.3,28.88,South,180,0.0,0.0,97,0.00,CLR,,0.00,WeatherDisplay:10.37,2013-11-21 09:58:00,
2013-11-21 04:01:00,37.0,36.3,28.88,South,180,0.0,0.0,97,0.00,CLR,,0.00,WeatherDisplay:10.37,2013-11-21 10:01:00,
2013-11-21 04:02:00,37.0,36.3,28.88,South,180,0.0,0.0,97,0.00,CLR,,0.00,WeatherDisplay:10.37,2013-11-21 10:02:00,
2013-11-21 04:03:00,37.0,36.3,28.88,South,180,0.0,0.0,97,0.00,CLR,,0.00,WeatherDisplay:10.37,2013-11-21 10:03:00,
2013-11-21 04:06:00,37.0,36.3,28.88,South,180,0.0,0.0,97,0.00,CLR,,0.00,WeatherDisplay:10.37,2013-11-21 10:06:00,
2013-11-21 04:08:00,37.0,36.3,28.88,South,180,0.0,0.0,97,0.00,CLR,,0.00,WeatherDisplay:10.37,2013-11-21 10:08:00,
2013-11-21 04:10:00,37.0,36.3,28.88,South,180,0.0,0.0,97,0.00,CLR,,0.00,WeatherDisplay:10.37,2013-11-21 10:10:00,
2013-11-21 04:12:00,37.0,36.3,28.88,South,180,0.0,0.0,97,0.00,CLR,,0.00,WeatherDisplay:10.37,2013-11-21 10:12:00,
2013-11-21 04:13:00,37.0,36.3,28.88,South,180,0.0,0.0,97,0.00,CLR,,0.00,WeatherDisplay:10.37,2013-11-21 10:13:00,
2013-11-21 04:14:00,37.0,36.3,28.88,South,180,0.0,0.0,97,0.00,CLR,,0.00,WeatherDisplay:10.37,2013-11-21 10:14:00,
2013-11-21 04:15:00,37.0,36.3,28.88,South,180,0.0,0.0,97,0.00,CLR,,0.00,WeatherDisplay:10.37,2013-11-21 10:15:00,
2013-11-21 04:17:00,37.0,36.3,28.88,SSW,202,0.0,0.0,97,0.00,CLR,,0.00,WeatherDisplay:10.37,2013-11-21 10:17:00,
2013-11-21 04:18:00,37.0,36.3,28.88,SSW,202,0.0,0.0,97,0.00,CLR,,0.00,WeatherDisplay:10.37,2013-11-21 10:18:00,
2013-11-21 04:19:00,37.0,36.3,28.88,SSW,202,0.0,0.0,97,0.00,CLR,,0.00,WeatherDisplay:10.37,2013-11-21 10:19:00,
2013-11-21 04:20:00,37.0,36.3,28.88,SW,225,0.0,0.0,97,0.00,CLR,,0.00,WeatherDisplay:10.37,2013-11-21 10:20:00,
2013-11-21 04:22:00,37.0,36.3,28.88,SW,225,0.0,0.0,97,0.00,CLR,,0.00,WeatherDisplay:10.37,2013-11-21 10:22:00,
2013-11-21 04:23:00,37.0,36.3,28.88,SW,225,0.0,0.0,97,0.00,CLR,,0.00,WeatherDisplay:10.37,2013-11-21 10:23:00,
2013-11-21 04:24:00,37.0,36.3,28.88,SW,225,0.0,0.0,97,0.00,CLR,,0.00,WeatherDisplay:10.37,2013-11-21 10:24:00,
2013-11-21 04:25:00,37.0,36.3,28.88,SW,215,0.0,0.0,97,0.00,CLR,,0.00,WeatherDisplay:10.37,2013-11-21 10:25:00,
2013-11-21 04:28:00,37.0,36.3,28.88,SW,225,0.0,0.0,97,0.00,CLR,,0.00,WeatherDisplay:10.37,2013-11-21 10:28:00,
2013-11-21 04:29:00,37.0,36.3,28.88,SW,225,0.0,0.0,97,0.00,CLR,,0.00,WeatherDisplay:10.37,2013-11-21 10:29:00,
2013-11-21 04:30:00,37.0,36.3,28.88,SW,225,0.0,0.0,97,0.00,CLR,,0.00,WeatherDisplay:10.37,2013-11-21 10:30:00,
2013-11-21 04:33:00,37.0,36.3,28.88,SW,225,0.0,0.0,97,0.00,CLR,,0.00,WeatherDisplay:10.37,2013-11-21 10:33:00,
2013-11-21 04:34:00,37.0,36.3,28.88,SW,225,0.0,0.0,97,0.00,CLR,,0.00,WeatherDisplay:10.37,2013-11-21 10:34:00,
2013-11-21 04:35:00,37.0,36.3,28.88,SW,225,0.0,0.0,97,0.00,CLR,,0.00,WeatherDisplay:10.37,2013-11-21 10:35:00,
2013-11-21 04:38:00,37.0,36.3,28.88,SW,225,0.0,0.0,97,0.00,CLR,,0.00,WeatherDisplay:10.37,2013-11-21 10:38:00,
2013-11-21 04:39:00,37.0,36.3,28.88,SW,225,0.0,0.0,97,0.00,CLR,,0.00,WeatherDisplay:10.37,2013-11-21 10:39:00,
2013-11-21 04:41:00,37.0,36.3,28.88,SW,225,0.0,0.0,97,0.00,CLR,,0.00,WeatherDisplay:10.37,2013-11-21 10:41:00,
2013-11-21 04:43:00,37.0,36.3,28.88,SW,225,0.0,0.0,97,0.00,CLR,,0.00,WeatherDisplay:10.37,2013-11-21 10:43:00,
2013-11-21 04:44:00,37.0,36.3,28.88,SW,225,0.0,0.0,97,0.00,CLR,,0.00,WeatherDisplay:10.37,2013-11-21 10:44:00,
2013-11-21 04:46:00,37.0,36.3,28.88,SW,225,0.0,0.0,97,0.00,CLR,,0.00,WeatherDisplay:10.37,2013-11-21 10:46:00,
2013-11-21 04:49:00,37.0,36.3,28.88,SW,225,0.0,0.0,97,0.00,CLR,,0.00,WeatherDisplay:10.37,2013-11-21 10:49:00,
2013-11-21 04:51:00,37.0,36.3,28.88,SW,225,0.0,0.0,97,0.00,CLR,,0.00,WeatherDisplay:10.37,2013-11-21 10:51:00,
2013-11-21 04:52:00,37.0,36.3,28.88,SW,225,0.0,0.0,97,0.00,CLR,,0.00,WeatherDisplay:10.37,2013-11-21 10:52:00,
2013-11-21 04:54:00,37.0,36.3,28.88,SW,225,0.0,0.0,97,0.00,CLR,,0.00,WeatherDisplay:10.37,2013-11-21 10:54:00,
2013-11-21 04:57:00,37.0,36.3,28.88,SW,225,0.0,0.0,97,0.00,CLR,,0.00,WeatherDisplay:10.37,2013-11-21 10:57:00,
2013-11-21 04:59:00,37.0,36.3,28.88,SW,225,0.0,0.0,97,0.00,CLR,,0.00,WeatherDisplay:10.37,2013-11-21 10:59:00,
2013-11-21 05:02:00,37.0,36.3,28.88,SW,225,0.0,0.0,97,0.00,CLR,,0.00,WeatherDisplay:10.37,2013-11-21 11:02:00,
2013-11-21 05:04:00,37.0,36.3,28.88,SW,225,0.0,0.0,97,0.00,CLR,,0.00,WeatherDisplay:10.37,2013-11-21 11:04:00,
2013-11-21 05:05:00,37.0,36.3,28.88,SW,225,0.0,0.0,97,0.00,CLR,,0.00,WeatherDisplay:10.37,2013-11-21 11:05:00,
2013-11-21 05:08:00,37.0,36.3,28.88,SW,225,0.0,0.0,97,0.00,CLR,,0.00,WeatherDisplay:10.37,2013-11-21 11:08:00,
2013-11-21 05:09:00,37.0,36.3,28.88,SW,225,0.0,0.0,97,0.00,CLR,,0.00,WeatherDisplay:10.37,2013-11-21 11:09:00,
2013-11-21 05:10:00,37.0,36.3,28.91,SW,225,0.0,0.0,97,0.00,CLR,,0.00,WeatherDisplay:10.37,2013-11-21 11:10:00,
2013-11-21 05:13:00,37.0,36.3,28.91,SW,225,0.0,0.0,97,0.00,CLR,,0.00,WeatherDisplay:10.37,2013-11-21 11:13:00,
2013-11-21 05:14:00,37.0,36.3,28.91,SW,225,0.0,0.0,97,0.00,CLR,,0.00,WeatherDisplay:10.37,2013-11-21 11:14:00,
2013-11-21 05:15:00,37.0,36.3,28.91,SW,225,0.0,0.0,97,0.00,CLR,,0.00,WeatherDisplay:10.37,2013-11-21 11:15:00,
2013-11-21 05:16:00,37.0,36.3,28.91,SW,225,0.0,0.0,97,0.00,CLR,,0.00,WeatherDisplay:10.37,2013-11-21 11:16:00,
2013-11-21 05:19:00,37.0,36.3,28.91,SW,225,0.0,0.0,97,0.00,CLR,,0.00,WeatherDisplay:10.37,2013-11-21 11:19:00,
2013-11-21 05:20:00,37.0,36.3,28.91,SW,225,0.0,0.0,97,0.00,CLR,,0.00,WeatherDisplay:10.37,2013-11-21 11:20:00,
2013-11-21 05:21:00,37.0,36.3,28.91,SW,225,0.0,0.0,97,0.00,CLR,,0.00,WeatherDisplay:10.37,2013-11-21 11:21:00,
2013-11-21 05:24:00,37.0,36.3,28.91,SW,225,0.0,0.0,97,0.00,CLR,,0.00,WeatherDisplay:10.37,2013-11-21 11:24:00,
2013-11-21 05:25:00,37.0,36.3,28.88,SW,225,0.0,0.0,97,0.00,CLR,,0.00,WeatherDisplay:10.37,2013-11-21 11:25:00,
2013-11-21 05:26:00,37.0,36.3,28.88,SW,225,0.0,0.0,97,0.00,CLR,,0.00,WeatherDisplay:10.37,2013-11-21 11:26:00,
2013-11-21 05:29:00,37.0,36.3,28.88,SW,225,0.0,0.0,97,0.00,CLR,,0.00,WeatherDisplay:10.37,2013-11-21 11:29:00,
2013-11-21 05:30:00,37.0,36.3,28.88,SW,225,0.0,0.0,97,0.00,CLR,,0.00,WeatherDisplay:10.37,2013-11-21 11:30:00,
2013-11-21 05:31:00,37.0,36.3,28.88,SW,225,0.0,0.0,97,0.00,CLR,,0.00,WeatherDisplay:10.37,2013-11-21 11:31:00,
2013-11-21 05:34:00,37.0,36.3,28.88,SW,225,0.0,0.0,97,0.00,CLR,,0.00,WeatherDisplay:10.37,2013-11-21 11:34:00,
2013-11-21 05:35:00,37.0,36.3,28.88,SW,225,0.0,0.0,97,0.00,CLR,,0.00,WeatherDisplay:10.37,2013-11-21 11:35:00,
2013-11-21 05:36:00,37.0,36.3,28.88,SW,225,0.0,0.0,97,0.00,CLR,,0.00,WeatherDisplay:10.37,2013-11-21 11:36:00,
2013-11-21 05:40:00,37.0,36.3,28.91,SW,225,0.0,0.0,97,0.00,CLR,,0.00,WeatherDisplay:10.37,2013-11-21 11:40:00,
2013-11-21 05:41:00,37.0,36.3,28.91,SW,225,0.0,0.0,97,0.00,CLR,,0.00,WeatherDisplay:10.37,2013-11-21 11:41:00,
2013-11-21 05:42:00,37.0,36.3,28.91,SW,225,0.0,0.0,97,0.00,CLR,,0.00,WeatherDisplay:10.37,2013-11-21 11:42:00,
2013-11-21 05:45:00,37.0,36.3,28.91,SW,225,0.0,0.0,97,0.00,CLR,,0.00,WeatherDisplay:10.37,2013-11-21 11:45:00,
2013-11-21 05:46:00,37.0,36.3,28.91,SSW,202,0.0,0.0,97,0.00,CLR,,0.00,WeatherDisplay:10.37,2013-11-21 11:46:00,
2013-11-21 05:47:00,37.0,36.3,28.91,SSW,202,0.0,0.0,97,0.00,CLR,,0.00,WeatherDisplay:10.37,2013-11-21 11:47:00,
2013-11-21 05:51:00,37.0,36.3,28.91,SSW,202,0.0,0.0,97,0.00,CLR,,0.00,WeatherDisplay:10.37,2013-11-21 11:51:00,
2013-11-21 05:52:00,37.0,36.3,28.91,SSW,202,0.0,0.0,97,0.00,CLR,,0.00,WeatherDisplay:10.37,2013-11-21 11:52:00,
2013-11-21 05:53:00,37.0,36.3,28.91,SSW,202,0.0,0.0,97,0.00,CLR,,0.00,WeatherDisplay:10.37,2013-11-21 11:53:00,
2013-11-21 05:56:00,37.0,36.3,28.91,SSW,202,0.0,0.0,97,0.00,CLR,,0.00,WeatherDisplay:10.37,2013-11-21 11:56:00,
2013-11-21 05:58:00,37.0,36.3,28.91,SSW,202,0.0,0.0,97,0.00,CLR,,0.00,WeatherDisplay:10.37,2013-11-21 11:58:00,
2013-11-21 06:01:00,37.0,36.3,28.91,SSW,202,0.0,0.0,97,0.00,CLR,,0.00,WeatherDisplay:10.37,2013-11-21 12:01:00,
2013-11-21 06:03:00,37.0,36.3,28.91,SSW,202,0.0,0.0,97,0.00,CLR,,0.00,WeatherDisplay:10.37,2013-11-21 12:03:00,
2013-11-21 06:06:00,37.0,36.3,28.91,SSW,202,0.0,0.0,97,0.00,CLR,,0.00,WeatherDisplay:10.37,2013-11-21 12:06:00,
2013-11-21 06:07:00,37.0,36.3,28.91,SSW,202,0.0,0.0,97,0.00,CLR,,0.00,WeatherDisplay:10.37,2013-11-21 12:07:00,
2013-11-21 06:08:00,37.0,36.3,28.91,SSW,202,0.0,0.0,97,0.00,CLR,,0.00,WeatherDisplay:10.37,2013-11-21 12:08:00,
2013-11-21 06:11:00,37.0,36.3,28.91,SSW,202,0.0,0.0,97,0.00,CLR,,0.00,WeatherDisplay:10.37,2013-11-21 12:11:00,
2013-11-21 06:12:00,37.0,36.3,28.91,SSW,202,0.0,0.0,97,0.00,CLR,,0.00,WeatherDisplay:10.37,2013-11-21 12:12:00,
2013-11-21 06:13:00,37.0,36.3,28.91,SSW,202,0.0,0.0,97,0.00,CLR,,0.00,WeatherDisplay:10.37,2013-11-21 12:13:00,
2013-11-21 06:16:00,37.0,36.3,28.91,SSW,202,0.0,0.0,97,0.00,CLR,,0.00,WeatherDisplay:10.37,2013-11-21 12:16:00,
2013-11-21 06:17:00,37.0,36.3,28.91,SSW,202,0.0,0.0,97,0.00,CLR,,0.00,WeatherDisplay:10.37,2013-11-21 12:17:00,
2013-11-21 06:18:00,37.0,36.3,28.91,SSW,202,0.0,0.0,97,0.00,CLR,,0.00,WeatherDisplay:10.37,2013-11-21 12:18:00,
2013-11-21 06:21:00,37.0,36.3,28.91,SSW,202,0.0,0.0,97,0.00,CLR,,0.00,WeatherDisplay:10.37,2013-11-21 12:21:00,
2013-11-21 06:22:00,37.0,36.3,28.91,SSW,202,0.0,0.0,97,0.00,CLR,,0.00,WeatherDisplay:10.37,2013-11-21 12:22:00,
2013-11-21 06:23:00,37.0,36.3,28.91,SSW,202,0.0,0.0,97,0.00,CLR,,0.00,WeatherDisplay:10.37,2013-11-21 12:23:00,
2013-11-21 06:26:00,37.0,36.3,28.91,SSW,202,0.0,0.0,97,0.00,CLR,,0.00,WeatherDisplay:10.37,2013-11-21 12:26:00,
2013-11-21 06:27:00,37.0,36.3,28.91,SSW,202,0.0,0.0,97,0.00,CLR,,0.00,WeatherDisplay:10.37,2013-11-21 12:27:00,
2013-11-21 06:29:00,37.0,36.3,28.91,SSW,202,0.0,0.0,97,0.00,CLR,,0.00,WeatherDisplay:10.37,2013-11-21 12:29:00,
2013-11-21 06:32:00,37.0,36.3,28.91,SSW,202,0.0,0.0,97,0.00,CLR,,0.00,WeatherDisplay:10.37,2013-11-21 12:32:00,
2013-11-21 06:34:00,37.0,36.3,28.91,SSW,202,0.0,0.0,97,0.00,CLR,,0.00,WeatherDisplay:10.37,2013-11-21 12:34:00,
2013-11-21 06:37:00,37.0,36.3,28.91,SSW,202,0.0,0.0,97,0.00,CLR,,0.00,WeatherDisplay:10.37,2013-11-21 12:37:00,
2013-11-21 06:38:00,37.0,36.3,28.91,SSW,202,0.0,0.0,97,0.00,CLR,,0.00,WeatherDisplay:10.37,2013-11-21 12:38:00,
2013-11-21 06:39:00,37.0,36.3,28.91,SSW,202,0.0,0.0,97,0.00,CLR,,0.00,WeatherDisplay:10.37,2013-11-21 12:39:00,
2013-11-21 06:40:00,37.0,36.3,28.88,SSW,202,0.0,0.0,97,0.00,CLR,,0.00,WeatherDisplay:10.37,2013-11-21 12:40:00,
2013-11-21 06:42:00,37.0,36.3,28.88,SSW,202,0.0,0.0,97,0.00,CLR,,0.00,WeatherDisplay:10.37,2013-11-21 12:42:00,
2013-11-21 06:43:00,37.0,36.3,28.88,SSW,202,0.0,0.0,97,0.00,CLR,,0.00,WeatherDisplay:10.37,2013-11-21 12:43:00,
2013-11-21 06:44:00,37.0,36.3,28.88,SSW,202,0.0,0.0,97,0.00,CLR,,0.00,WeatherDisplay:10.37,2013-11-21 12:44:00,
2013-11-21 06:45:00,37.0,36.3,28.88,SSW,202,0.0,0.0,97,0.00,CLR,,0.00,WeatherDisplay:10.37,2013-11-21 12:45:00,
2013-11-21 06:47:00,37.0,36.3,28.88,SSW,202,0.0,0.0,97,0.00,CLR,,0.00,WeatherDisplay:10.37,2013-11-21 12:47:00,
2013-11-21 06:48:00,37.0,36.3,28.88,SSW,202,0.0,0.0,97,0.00,CLR,,0.00,WeatherDisplay:10.37,2013-11-21 12:48:00,
2013-11-21 06:49:00,37.0,36.3,28.88,SSW,202,0.0,0.0,97,0.00,CLR,,0.00,WeatherDisplay:10.37,2013-11-21 12:49:00,
2013-11-21 06:50:00,37.0,36.3,28.88,SSW,202,0.0,0.0,97,0.00,CLR,,0.00,WeatherDisplay:10.37,2013-11-21 12:50:00,
2013-11-21 06:52:00,37.0,36.3,28.88,SSW,202,0.0,0.0,97,0.00,CLR,,0.00,WeatherDisplay:10.37,2013-11-21 12:52:00,
2013-11-21 06:53:00,37.0,36.3,28.88,SSW,202,0.0,0.0,97,0.00,CLR,,0.00,WeatherDisplay:10.37,2013-11-21 12:53:00,
2013-11-21 06:54:00,37.0,36.3,28.88,SSW,202,0.0,0.0,97,0.00,CLR,,0.00,WeatherDisplay:10.37,2013-11-21 12:54:00,
2013-11-21 06:55:00,37.0,36.3,28.91,SSW,202,0.0,0.0,97,0.00,CLR,,0.00,WeatherDisplay:10.37,2013-11-21 12:55:00,
2013-11-21 06:57:00,37.0,36.3,28.91,SSW,202,0.0,0.0,97,0.00,CLR,,0.00,WeatherDisplay:10.37,2013-11-21 12:57:00,
2013-11-21 06:58:00,37.0,36.3,28.91,SSW,202,0.0,0.0,97,0.00,CLR,,0.00,WeatherDisplay:10.37,2013-11-21 12:58:00,
2013-11-21 06:59:00,37.0,36.3,28.91,SSW,202,0.0,0.0,97,0.00,CLR,,0.00,WeatherDisplay:10.37,2013-11-21 12:59:00,
2013-11-21 07:00:00,37.0,36.3,28.91,SSW,202,0.0,0.0,97,0.00,CLR,,0.00,WeatherDisplay:10.37,2013-11-21 13:00:00,
2013-11-21 07:02:00,37.0,36.3,28.91,SSW,202,0.0,0.0,97,0.00,CLR,,0.00,WeatherDisplay:10.37,2013-11-21 13:02:00,
2013-11-21 07:03:00,37.0,36.3,28.91,SSW,202,0.0,0.0,97,0.00,CLR,,0.00,WeatherDisplay:10.37,2013-11-21 13:03:00,
2013-11-21 07:04:00,37.0,36.3,28.91,SSW,202,0.0,0.0,97,0.00,CLR,,0.00,WeatherDisplay:10.37,2013-11-21 13:04:00,
2013-11-21 07:05:00,37.0,36.3,28.91,SSW,202,0.0,0.0,97,0.00,CLR,,0.00,WeatherDisplay:10.37,2013-11-21 13:05:00,
2013-11-21 07:07:00,37.0,36.3,28.91,SSW,202,0.0,0.0,97,0.00,CLR,,0.00,WeatherDisplay:10.37,2013-11-21 13:07:00,
2013-11-21 07:08:00,37.0,36.3,28.91,SSW,202,0.0,0.0,97,0.00,CLR,,0.00,WeatherDisplay:10.37,2013-11-21 13:08:00,
2013-11-21 07:09:00,37.0,36.3,28.91,SSW,202,0.0,0.0,97,0.00,CLR,,0.00,WeatherDisplay:10.37,2013-11-21 13:09:00,
2013-11-21 07:10:00,37.0,36.3,28.91,SSW,202,0.0,0.0,97,0.00,CLR,,0.00,WeatherDisplay:10.37,2013-11-21 13:10:00,
2013-11-21 07:13:00,37.0,36.3,28.91,SSW,202,0.0,0.0,97,0.00,CLR,,0.00,WeatherDisplay:10.37,2013-11-21 13:13:00,
2013-11-21 07:14:00,37.0,36.3,28.91,SSW,202,0.0,0.0,97,0.00,CLR,,0.00,WeatherDisplay:10.37,2013-11-21 13:14:00,
2013-11-21 07:15:00,37.0,36.3,28.91,SSW,202,0.0,0.0,97,0.00,CLR,,0.00,WeatherDisplay:10.37,2013-11-21 13:15:00,
2013-11-21 07:18:00,37.0,36.3,28.91,SSW,202,0.0,0.0,97,0.00,CLR,,0.00,WeatherDisplay:10.37,2013-11-21 13:18:00,
2013-11-21 07:19:00,37.0,36.3,28.91,SSW,202,0.0,0.0,97,0.00,CLR,,0.00,WeatherDisplay:10.37,2013-11-21 13:19:00,
2013-11-21 07:20:00,37.0,36.3,28.91,SSW,202,0.0,0.0,97,0.00,CLR,,0.00,WeatherDisplay:10.37,2013-11-21 13:20:00,
2013-11-21 07:24:00,37.0,36.3,28.91,SE,135,0.0,0.0,97,0.00,CLR,,0.00,WeatherDisplay:10.37,2013-11-21 13:24:00,
2013-11-21 07:25:00,37.2,36.4,28.91,SE,135,0.0,0.0,97,0.00,CLR,,0.00,WeatherDisplay:10.37,2013-11-21 13:25:00,
2013-11-21 07:26:00,37.2,36.4,28.91,SE,135,0.0,0.0,97,0.00,CLR,,0.00,WeatherDisplay:10.37,2013-11-21 13:26:00,
2013-11-21 07:29:00,37.2,36.4,28.91,SE,135,0.0,0.0,97,0.00,CLR,,0.00,WeatherDisplay:10.37,2013-11-21 13:29:00,
2013-11-21 07:30:00,37.2,36.4,28.91,SE,135,0.0,0.0,97,0.00,CLR,,0.00,WeatherDisplay:10.37,2013-11-21 13:30:00,
2013-11-21 07:31:00,37.2,36.4,28.91,SE,135,0.0,0.0,97,0.00,CLR,,0.00,WeatherDisplay:10.37,2013-11-21 13:31:00,
2013-11-21 07:34:00,37.2,36.4,28.91,SE,135,0.0,0.0,97,0.00,CLR,,0.00,WeatherDisplay:10.37,2013-11-21 13:34:00,
2013-11-21 07:35:00,37.2,36.4,28.91,SE,135,0.0,0.0,97,0.00,CLR,,0.00,WeatherDisplay:10.37,2013-11-21 13:35:00,
2013-11-21 07:36:00,37.4,36.6,28.91,SE,135,0.0,0.0,97,0.00,CLR,,0.00,WeatherDisplay:10.37,2013-11-21 13:36:00,
2013-11-21 07:39:00,37.4,36.6,28.91,SE,135,0.0,0.0,97,0.00,CLR,,0.00,WeatherDisplay:10.37,2013-11-21 13:39:00,
2013-11-21 07:40:00,37.4,36.6,28.91,SE,135,0.0,0.0,97,0.00,CLR,,0.00,WeatherDisplay:10.37,2013-11-21 13:40:00,
2013-11-21 07:41:00,37.4,36.6,28.91,SE,135,0.0,0.0,97,0.00,CLR,,0.00,WeatherDisplay:10.37,2013-11-21 13:41:00,
2013-11-21 07:44:00,37.4,36.6,28.91,SE,135,0.0,0.0,97,0.00,CLR,,0.00,WeatherDisplay:10.37,2013-11-21 13:44:00,
2013-11-21 07:45:00,37.4,36.6,28.91,SE,135,0.0,0.0,97,0.00,CLR,,0.00,WeatherDisplay:10.37,2013-11-21 13:45:00,
2013-11-21 07:46:00,37.4,36.6,28.91,SE,135,0.0,0.0,97,0.00,CLR,,0.00,WeatherDisplay:10.37,2013-11-21 13:46:00,
2013-11-21 07:47:00,37.4,36.6,28.91,SE,135,0.0,0.0,97,0.00,CLR,,0.00,WeatherDisplay:10.37,2013-11-21 13:47:00,
2013-11-21 07:49:00,37.6,36.8,28.91,SE,135,0.0,0.0,97,0.00,CLR,,0.00,WeatherDisplay:10.37,2013-11-21 13:49:00,
2013-11-21 07:50:00,37.6,36.8,28.91,SE,135,0.0,0.0,97,0.00,CLR,,0.00,WeatherDisplay:10.37,2013-11-21 13:50:00,
2013-11-21 07:51:00,37.6,36.8,28.91,SE,135,0.0,0.0,97,0.00,CLR,,0.00,WeatherDisplay:10.37,2013-11-21 13:51:00,
2013-11-21 07:52:00,37.6,36.8,28.91,SE,135,0.0,0.0,97,0.00,CLR,,0.00,WeatherDisplay:10.37,2013-11-21 13:52:00,
2013-11-21 07:55:00,37.6,36.8,28.97,SE,135,0.0,0.0,97,0.00,CLR,,0.00,WeatherDisplay:10.37,2013-11-21 13:55:00,
2013-11-21 07:56:00,37.6,36.8,28.97,SE,135,0.0,0.0,97,0.00,CLR,,0.00,WeatherDisplay:10.37,2013-11-21 13:56:00,
2013-11-21 07:58:00,37.6,36.8,28.97,SE,135,0.0,0.0,97,0.00,CLR,,0.00,WeatherDisplay:10.37,2013-11-21 13:58:00,
2013-11-21 08:00:00,37.8,37.0,28.97,South,180,0.0,0.0,97,0.00,CLR,,0.00,WeatherDisplay:10.37,2013-11-21 14:00:00,
2013-11-21 08:01:00,37.8,37.0,28.97,South,180,0.0,0.0,97,0.00,CLR,,0.00,WeatherDisplay:10.37,2013-11-21 14:01:00,
2013-11-21 08:02:00,37.8,37.0,28.97,SSW,202,0.0,0.0,97,0.00,CLR,,0.00,WeatherDisplay:10.37,2013-11-21 14:02:00,
2013-11-21 08:03:00,37.8,37.0,28.97,SW,225,0.0,0.0,97,0.00,CLR,,0.00,WeatherDisplay:10.37,2013-11-21 14:03:00,
2013-11-21 08:05:00,37.8,37.0,28.97,SW,225,0.0,0.0,97,0.00,CLR,,0.00,WeatherDisplay:10.37,2013-11-21 14:05:00,
2013-11-21 08:06:00,37.9,37.2,28.97,SW,225,0.0,0.0,97,0.00,CLR,,0.00,WeatherDisplay:10.37,2013-11-21 14:06:00,
2013-11-21 08:07:00,37.9,37.2,28.97,SW,225,0.0,0.0,97,0.00,CLR,,0.00,WeatherDisplay:10.37,2013-11-21 14:07:00,
2013-11-21 08:08:00,37.8,37.0,28.97,SW,225,0.0,0.0,97,0.00,CLR,,0.00,WeatherDisplay:10.37,2013-11-21 14:08:00,
2013-11-21 08:10:00,37.9,37.2,28.94,SW,225,0.0,0.0,97,0.00,CLR,,0.00,WeatherDisplay:10.37,2013-11-21 14:10:00,
2013-11-21 08:11:00,37.9,37.2,28.94,SW,225,0.0,0.0,97,0.00,CLR,,0.00,WeatherDisplay:10.37,2013-11-21 14:11:00,
2013-11-21 08:12:00,37.9,37.2,28.94,SW,225,0.0,0.0,97,0.00,CLR,,0.00,WeatherDisplay:10.37,2013-11-21 14:12:00,
2013-11-21 08:13:00,37.9,37.2,28.94,SW,225,0.0,0.0,97,0.00,CLR,,0.00,WeatherDisplay:10.37,2013-11-21 14:13:00,
2013-11-21 08:15:00,37.9,37.2,28.94,SW,225,0.0,0.0,97,0.00,CLR,,0.00,WeatherDisplay:10.37,2013-11-21 14:15:00,
2013-11-21 08:16:00,37.9,37.2,28.94,SW,225,0.0,0.0,97,0.00,CLR,,0.00,WeatherDisplay:10.37,2013-11-21 14:16:00,
2013-11-21 08:17:00,37.9,37.2,28.94,SW,225,0.0,0.0,97,0.00,CLR,,0.00,WeatherDisplay:10.37,2013-11-21 14:17:00,
2013-11-21 08:19:00,38.1,37.3,28.94,SW,225,0.0,0.0,97,0.00,CLR,,0.00,WeatherDisplay:10.37,2013-11-21 14:19:00,
2013-11-21 08:20:00,38.1,37.3,28.94,SW,225,0.0,0.0,97,0.00,CLR,,0.00,WeatherDisplay:10.37,2013-11-21 14:20:00,
2013-11-21 08:21:00,38.1,37.3,28.94,SW,225,0.0,0.0,97,0.00,CLR,,0.00,WeatherDisplay:10.37,2013-11-21 14:21:00,
2013-11-21 08:22:00,38.1,37.3,28.94,SW,225,0.0,0.0,97,0.00,CLR,,0.00,WeatherDisplay:10.37,2013-11-21 14:22:00,
2013-11-21 08:23:00,38.1,37.3,28.94,SW,225,0.0,0.0,97,0.00,CLR,,0.00,WeatherDisplay:10.37,2013-11-21 14:23:00,
2013-11-21 08:24:00,37.9,37.2,28.94,SW,225,0.0,0.0,97,0.00,CLR,,0.00,WeatherDisplay:10.37,2013-11-21 14:24:00,
2013-11-21 08:25:00,38.1,37.3,28.97,SW,225,0.0,0.0,97,0.00,CLR,,0.00,WeatherDisplay:10.37,2013-11-21 14:25:00,
2013-11-21 08:27:00,38.1,37.3,28.97,SW,225,0.0,0.0,97,0.00,CLR,,0.00,WeatherDisplay:10.37,2013-11-21 14:27:00,
2013-11-21 08:29:00,38.3,37.5,28.97,SW,225,0.0,0.0,97,0.00,CLR,,0.00,WeatherDisplay:10.37,2013-11-21 14:29:00,
2013-11-21 08:30:00,38.3,37.5,28.97,SW,225,0.0,0.0,97,0.00,CLR,,0.00,WeatherDisplay:10.37,2013-11-21 14:30:00,
2013-11-21 08:31:00,38.3,37.5,28.97,SW,225,0.0,0.0,97,0.00,CLR,,0.00,WeatherDisplay:10.37,2013-11-21 14:31:00,
2013-11-21 08:32:00,38.3,37.5,28.97,WNW,292,0.0,0.0,97,0.00,CLR,,0.00,WeatherDisplay:10.37,2013-11-21 14:32:00,
2013-11-21 08:33:00,38.3,37.5,28.97,WNW,292,0.0,0.0,97,0.00,CLR,,0.00,WeatherDisplay:10.37,2013-11-21 14:33:00,
2013-11-21 08:34:00,38.5,37.7,28.97,WNW,292,0.0,0.0,97,0.00,CLR,,0.00,WeatherDisplay:10.37,2013-11-21 14:34:00,
2013-11-21 08:35:00,38.5,37.7,28.97,WNW,292,0.0,0.0,97,0.00,CLR,,0.00,WeatherDisplay:10.37,2013-11-21 14:35:00,
2013-11-21 08:36:00,38.5,37.7,28.97,WNW,292,0.0,0.0,97,0.00,CLR,,0.00,WeatherDisplay:10.37,2013-11-21 14:36:00,
2013-11-21 08:37:00,38.5,37.7,28.97,WNW,292,0.0,0.0,97,0.00,CLR,,0.00,WeatherDisplay:10.37,2013-11-21 14:37:00,
2013-11-21 08:38:00,38.5,37.7,28.97,WNW,292,0.0,0.0,97,0.00,CLR,,0.00,WeatherDisplay:10.37,2013-11-21 14:38:00,
2013-11-21 08:39:00,38.5,37.7,28.94,WNW,292,0.0,0.0,97,0.00,CLR,,0.00,WeatherDisplay:10.37,2013-11-21 14:39:00,
2013-11-21 08:40:00,38.5,37.7,28.94,WNW,292,0.0,0.0,97,0.00,CLR,,0.00,WeatherDisplay:10.37,2013-11-21 14:40:00,
2013-11-21 08:41:00,38.5,37.7,28.94,WNW,292,0.0,0.0,97,0.00,CLR,,0.00,WeatherDisplay:10.37,2013-11-21 14:41:00,
2013-11-21 08:42:00,38.7,37.9,28.94,WNW,292,0.0,0.0,97,0.00,CLR,,0.00,WeatherDisplay:10.37,2013-11-21 14:42:00,
2013-11-21 08:43:00,38.7,37.9,28.94,WNW,292,0.0,0.0,97,0.00,CLR,,0.00,WeatherDisplay:10.37,2013-11-21 14:43:00,
2013-11-21 08:45:00,38.7,37.9,28.94,WNW,292,0.0,0.0,97,0.00,CLR,,0.00,WeatherDisplay:10.37,2013-11-21 14:45:00,
2013-11-21 08:46:00,38.7,37.9,28.94,WNW,292,0.0,0.0,97,0.00,CLR,,0.00,WeatherDisplay:10.37,2013-11-21 14:46:00,
2013-11-21 08:47:00,38.7,37.9,28.94,WNW,292,0.0,0.0,97,0.00,CLR,,0.00,WeatherDisplay:10.37,2013-11-21 14:47:00,
2013-11-21 08:48:00,38.7,37.9,28.94,WNW,292,0.0,0.0,97,0.00,CLR,,0.00,WeatherDisplay:10.37,2013-11-21 14:48:00,
2013-11-21 08:50:00,38.7,37.9,28.94,WNW,292,0.0,0.0,97,0.00,CLR,,0.00,WeatherDisplay:10.37,2013-11-21 14:50:00,
2013-11-21 08:51:00,38.7,37.9,28.94,WNW,292,0.0,0.0,97,0.00,CLR,,0.00,WeatherDisplay:10.37,2013-11-21 14:51:00,
2013-11-21 08:53:00,38.8,38.1,28.94,WNW,292,0.0,0.0,97,0.00,CLR,,0.00,WeatherDisplay:10.37,2013-11-21 14:53:00,
2013-11-21 08:54:00,38.8,38.1,28.94,West,270,0.0,0.0,97,0.00,CLR,,0.00,WeatherDisplay:10.37,2013-11-21 14:54:00,
2013-11-21 08:55:00,38.8,38.1,28.94,West,270,0.0,0.0,97,0.00,CLR,,0.00,WeatherDisplay:10.37,2013-11-21 14:55:00,
2013-11-21 08:56:00,38.8,38.1,28.94,West,270,0.0,0.0,97,0.00,CLR,,0.00,WeatherDisplay:10.37,2013-11-21 14:56:00,
2013-11-21 08:57:00,38.8,38.1,28.94,WNW,292,0.0,0.0,97,0.00,CLR,,0.00,WeatherDisplay:10.37,2013-11-21 14:57:00,
2013-11-21 08:58:00,38.8,37.8,28.94,WNW,292,0.0,0.0,96,0.00,CLR,,0.00,WeatherDisplay:10.37,2013-11-21 14:58:00,
2013-11-21 08:59:00,38.8,37.8,28.94,WNW,292,0.0,0.0,96,0.00,CLR,,0.00,WeatherDisplay:10.37,2013-11-21 14:59:00,
2013-11-21 09:00:00,38.8,37.8,28.94,West,270,0.0,0.0,96,0.00,CLR,,0.00,WeatherDisplay:10.37,2013-11-21 15:00:00,
2013-11-21 09:01:00,38.8,37.8,28.94,West,270,0.0,0.0,96,0.00,CLR,,0.00,WeatherDisplay:10.37,2013-11-21 15:01:00,
2013-11-21 09:02:00,38.8,37.8,28.94,NW,315,0.0,0.0,96,0.00,CLR,,0.00,WeatherDisplay:10.37,2013-11-21 15:02:00,
2013-11-21 09:03:00,38.8,37.8,28.94,NW,315,0.0,0.0,96,0.00,CLR,,0.00,WeatherDisplay:10.37,2013-11-21 15:03:00,
2013-11-21 09:04:00,38.8,37.8,28.94,North,0,2.0,0.0,96,0.00,CLR,,0.00,WeatherDisplay:10.37,2013-11-21 15:04:00,
2013-11-21 09:05:00,38.8,37.8,28.94,NW,315,2.3,2.3,96,0.00,CLR,,0.00,WeatherDisplay:10.37,2013-11-21 15:05:00,
2013-11-21 09:07:00,39.0,38.0,28.94,NNW,338,2.3,2.3,96,0.00,CLR,,0.00,WeatherDisplay:10.37,2013-11-21 15:07:00,
2013-11-21 09:08:00,39.0,38.0,28.94,WSW,248,2.3,2.3,96,0.00,CLR,,0.00,WeatherDisplay:10.37,2013-11-21 15:08:00,
2013-11-21 09:09:00,39.0,38.0,28.94,NW,315,2.3,2.3,96,0.00,CLR,,0.00,WeatherDisplay:10.37,2013-11-21 15:09:00,
2013-11-21 09:10:00,39.0,38.0,28.94,NNW,338,2.4,2.4,96,0.00,CLR,,0.00,WeatherDisplay:10.37,2013-11-21 15:10:00,
2013-11-21 09:12:00,39.2,38.2,28.94,NNW,338,2.3,2.3,96,0.00,CLR,,0.00,WeatherDisplay:10.37,2013-11-21 15:12:00,
2013-11-21 09:13:00,39.0,38.0,28.94,NNW,338,2.6,2.6,96,0.00,CLR,,0.00,WeatherDisplay:10.37,2013-11-21 15:13:00,
2013-11-21 09:14:00,39.0,38.0,28.94,NW,315,2.6,2.6,96,0.00,CLR,,0.00,WeatherDisplay:10.37,2013-11-21 15:14:00,
2013-11-21 09:15:00,39.0,38.0,28.94,WNW,292,3.1,3.1,96,0.00,CLR,,0.00,WeatherDisplay:10.37,2013-11-21 15:15:00,
2013-11-21 09:16:00,39.0,38.0,28.94,NW,315,3.6,3.6,96,0.00,CLR,,0.00,WeatherDisplay:10.37,2013-11-21 15:16:00,
2013-11-21 09:18:00,39.0,38.0,28.94,WNW,292,3.6,3.6,96,0.00,CLR,,0.00,WeatherDisplay:10.37,2013-11-21 15:18:00,
2013-11-21 09:19:00,39.0,38.0,28.94,NW,315,3.6,3.6,96,0.00,CLR,,0.00,WeatherDisplay:10.37,2013-11-21 15:19:00,
2013-11-21 09:21:00,39.0,37.7,28.94,NW,315,4.6,4.6,95,0.00,CLR,,0.00,WeatherDisplay:10.37,2013-11-21 15:21:00,
2013-11-21 09:23:00,39.0,37.7,28.94,WNW,292,4.6,4.6,95,0.00,CLR,,0.00,WeatherDisplay:10.37,2013-11-21 15:23:00,
2013-11-21 09:24:00,39.0,37.7,28.94,WNW,292,4.6,4.6,95,0.00,CLR,,0.00,WeatherDisplay:10.37,2013-11-21 15:24:00,
2013-11-21 09:26:00,39.0,37.4,28.97,WNW,292,6.9,6.9,94,0.00,CLR,,0.00,WeatherDisplay:10.37,2013-11-21 15:26:00,
2013-11-21 09:29:00,39.0,37.2,28.97,NW,315,3.5,3.5,93,0.00,CLR,,0.00,WeatherDisplay:10.37,2013-11-21 15:29:00,
2013-11-21 09:30:00,39.0,37.2,28.97,NW,315,4.6,4.6,93,0.00,CLR,,0.00,WeatherDisplay:10.37,2013-11-21 15:30:00,
2013-11-21 09:31:00,39.0,36.9,28.97,NW,315,4.6,4.6,92,0.00,CLR,,0.00,WeatherDisplay:10.37,2013-11-21 15:31:00,
2013-11-21 09:34:00,39.0,36.9,28.97,WNW,292,3.5,3.5,92,0.00,CLR,,0.00,WeatherDisplay:10.37,2013-11-21 15:34:00,
2013-11-21 09:35:00,39.0,36.9,28.97,NW,315,2.6,2.6,92,0.00,CLR,,0.00,WeatherDisplay:10.37,2013-11-21 15:35:00,
2013-11-21 09:36:00,39.0,36.9,28.97,NNW,338,2.4,2.4,92,0.00,CLR,,0.00,WeatherDisplay:10.37,2013-11-21 15:36:00,
2013-11-21 09:37:00,39.2,37.1,28.97,WNW,292,2.6,2.6,92,0.00,CLR,,0.00,WeatherDisplay:10.37,2013-11-21 15:37:00,
2013-11-21 09:39:00,39.2,37.1,28.97,WNW,292,3.5,3.5,92,0.00,CLR,,0.00,WeatherDisplay:10.37,2013-11-21 15:39:00,
2013-11-21 09:40:00,39.2,37.1,28.94,WNW,292,4.3,4.3,92,0.00,CLR,,0.00,WeatherDisplay:10.37,2013-11-21 15:40:00,
2013-11-21 09:41:00,39.0,36.9,28.94,WNW,292,4.6,4.6,92,0.00,CLR,,0.00,WeatherDisplay:10.37,2013-11-21 15:41:00,
2013-11-21 09:42:00,39.0,36.9,28.94,NNW,338,4.6,4.6,92,0.00,CLR,,0.00,WeatherDisplay:10.37,2013-11-21 15:42:00,
2013-11-21 09:45:00,39.2,36.8,28.94,North,0,4.6,4.6,91,0.00,CLR,,0.00,WeatherDisplay:10.37,2013-11-21 15:45:00,
2013-11-21 09:46:00,39.2,36.8,28.94,WNW,292,4.6,4.6,91,0.00,CLR,,0.00,WeatherDisplay:10.37,2013-11-21 15:46:00,
2013-11-21 09:48:00,39.2,36.8,28.94,WNW,292,4.6,4.6,91,0.00,CLR,,0.00,WeatherDisplay:10.37,2013-11-21 15:48:00,
2013-11-21 09:50:00,39.4,37.0,28.94,WNW,292,3.5,3.5,91,0.00,CLR,,0.00,WeatherDisplay:10.37,2013-11-21 15:50:00,
2013-11-21 09:51:00,39.4,37.0,28.94,WNW,292,3.6,3.6,91,0.00,CLR,,0.00,WeatherDisplay:10.37,2013-11-21 15:51:00,
2013-11-21 09:53:00,39.2,36.5,28.94,North,0,4.6,4.6,90,0.00,CLR,,0.00,WeatherDisplay:10.37,2013-11-21 15:53:00,
2013-11-21 09:55:00,39.2,36.2,28.97,NW,315,4.6,4.6,89,0.00,CLR,,0.00,WeatherDisplay:10.37,2013-11-21 15:55:00,
2013-11-21 09:56:00,39.4,36.4,28.97,North,0,4.6,4.6,89,0.00,CLR,,0.00,WeatherDisplay:10.37,2013-11-21 15:56:00,
2013-11-21 09:57:00,39.4,36.4,28.97,NNW,338,4.6,4.6,89,0.00,CLR,,0.00,WeatherDisplay:10.37,2013-11-21 15:57:00,
2013-11-21 09:58:00,39.4,36.4,28.97,NW,315,4.6,4.6,89,0.00,CLR,,0.00,WeatherDisplay:10.37,2013-11-21 15:58:00,
2013-11-21 10:01:00,39.6,36.6,28.97,NW,315,3.5,4.3,89,0.00,CLR,,0.00,WeatherDisplay:10.37,2013-11-21 16:01:00,
2013-11-21 10:02:00,39.6,36.6,28.97,NW,315,3.6,3.6,89,0.00,CLR,,0.00,WeatherDisplay:10.37,2013-11-21 16:02:00,
2013-11-21 10:03:00,39.7,36.8,28.97,NW,315,5.8,5.8,89,0.00,CLR,,0.00,WeatherDisplay:10.37,2013-11-21 16:03:00,
2013-11-21 10:06:00,39.7,36.5,28.97,WNW,292,3.8,3.8,88,0.00,CLR,,0.00,WeatherDisplay:10.37,2013-11-21 16:06:00,
2013-11-21 10:07:00,39.7,36.5,28.97,NNW,338,5.8,5.8,88,0.00,CLR,,0.00,WeatherDisplay:10.37,2013-11-21 16:07:00,
2013-11-21 10:08:00,39.9,36.7,28.97,NNW,338,4.6,4.6,88,0.00,CLR,,0.00,WeatherDisplay:10.37,2013-11-21 16:08:00,
2013-11-21 10:09:00,39.9,36.7,28.97,NW,315,4.6,4.6,88,0.00,CLR,,0.00,WeatherDisplay:10.37,2013-11-21 16:09:00,
2013-11-21 10:11:00,40.1,36.8,28.97,WNW,292,2.9,2.9,88,0.00,CLR,,0.00,WeatherDisplay:10.37,2013-11-21 16:11:00,
2013-11-21 10:12:00,40.1,36.8,28.97,NW,315,4.6,4.6,88,0.00,CLR,,0.00,WeatherDisplay:10.37,2013-11-21 16:12:00,
2013-11-21 10:13:00,40.3,37.0,28.97,NW,315,3.6,3.6,88,0.00,CLR,,0.00,WeatherDisplay:10.37,2013-11-21 16:13:00,
2013-11-21 10:14:00,40.3,37.0,28.97,NW,315,3.5,3.5,88,0.00,CLR,,0.00,WeatherDisplay:10.37,2013-11-21 16:14:00,
2013-11-21 10:16:00,40.3,37.0,28.97,NW,315,4.3,4.3,88,0.00,CLR,,0.00,WeatherDisplay:10.37,2013-11-21 16:16:00,
2013-11-21 10:17:00,40.3,36.7,28.97,North,0,4.6,4.6,87,0.00,CLR,,0.00,WeatherDisplay:10.37,2013-11-21 16:17:00,
2013-11-21 10:18:00,40.3,36.7,28.97,NW,315,5.8,5.8,87,0.00,CLR,,0.00,WeatherDisplay:10.37,2013-11-21 16:18:00,
2013-11-21 10:19:00,40.3,36.7,28.97,NW,315,4.6,4.6,87,0.00,CLR,,0.00,WeatherDisplay:10.37,2013-11-21 16:19:00,
2013-11-21 10:21:00,40.3,36.7,28.97,NW,315,3.5,3.5,87,0.00,CLR,,0.00,WeatherDisplay:10.37,2013-11-21 16:21:00,
2013-11-21 10:22:00,40.3,36.7,28.97,NNW,338,3.5,3.5,87,0.00,CLR,,0.00,WeatherDisplay:10.37,2013-11-21 16:22:00,
2013-11-21 10:23:00,40.3,36.4,28.97,NW,315,3.5,3.5,86,0.00,CLR,,0.00,WeatherDisplay:10.37,2013-11-21 16:23:00,
2013-11-21 10:26:00,40.5,36.9,28.97,NW,315,3.5,3.5,87,0.00,CLR,,0.00,WeatherDisplay:10.37,2013-11-21 16:26:00,
2013-11-21 10:27:00,40.5,36.9,28.97,NNW,338,3.5,3.5,87,0.00,CLR,,0.00,WeatherDisplay:10.37,2013-11-21 16:27:00,
2013-11-21 10:28:00,40.5,36.6,28.97,NW,315,3.5,3.5,86,0.00,CLR,,0.00,WeatherDisplay:10.37,2013-11-21 16:28:00,
2013-11-21 10:29:00,40.5,36.6,28.97,NW,315,2.3,2.3,86,0.00,CLR,,0.00,WeatherDisplay:10.37,2013-11-21 16:29:00,
2013-11-21 10:31:00,40.6,36.8,28.97,WNW,292,4.6,4.6,86,0.00,CLR,,0.00,WeatherDisplay:10.37,2013-11-21 16:31:00,
2013-11-21 10:32:00,40.6,36.8,28.97,WNW,292,3.8,3.8,86,0.00,CLR,,0.00,WeatherDisplay:10.37,2013-11-21 16:32:00,
2013-11-21 10:33:00,40.6,36.2,28.97,NW,315,4.6,4.6,84,0.00,CLR,,0.00,WeatherDisplay:10.37,2013-11-21 16:33:00,
2013-11-21 10:34:00,40.6,36.2,28.97,NW,315,4.6,4.6,84,0.00,CLR,,0.00,WeatherDisplay:10.37,2013-11-21 16:34:00,
2013-11-21 10:37:00,40.8,36.1,28.97,NW,315,3.5,3.6,83,0.00,CLR,,0.00,WeatherDisplay:10.37,2013-11-21 16:37:00,
2013-11-21 10:38:00,41.0,35.9,28.97,NNW,338,3.5,3.5,82,0.00,CLR,,0.00,WeatherDisplay:10.37,2013-11-21 16:38:00,
2013-11-21 10:39:00,41.0,35.9,28.97,NNW,338,3.5,3.5,82,0.00,CLR,,0.00,WeatherDisplay:10.37,2013-11-21 16:39:00,
2013-11-21 10:42:00,41.2,36.1,28.97,NW,315,2.3,2.6,82,0.00,CLR,,0.00,WeatherDisplay:10.37,2013-11-21 16:42:00,
2013-11-21 10:43:00,41.2,36.1,28.97,NNW,338,3.5,3.5,82,0.00,CLR,,0.00,WeatherDisplay:10.37,2013-11-21 16:43:00,
2013-11-21 10:44:00,41.2,36.1,28.97,North,0,3.5,3.5,82,0.00,CLR,,0.00,WeatherDisplay:10.37,2013-11-21 16:44:00,
2013-11-21 10:47:00,41.2,36.1,28.97,NNW,338,3.5,3.5,82,0.00,CLR,,0.00,WeatherDisplay:10.37,2013-11-21 16:47:00,
2013-11-21 10:48:00,41.2,36.1,28.97,NW,315,3.5,3.5,82,0.00,CLR,,0.00,WeatherDisplay:10.37,2013-11-21 16:48:00,
2013-11-21 10:49:00,41.2,36.1,28.97,NW,315,2.4,2.4,82,0.00,CLR,,0.00,WeatherDisplay:10.37,2013-11-21 16:49:00,
2013-11-21 10:52:00,41.2,36.1,28.97,NNW,338,4.6,4.6,82,0.00,CLR,,0.00,WeatherDisplay:10.37,2013-11-21 16:52:00,
2013-11-21 10:53:00,41.2,36.1,28.97,NNW,338,4.6,4.6,82,0.00,CLR,,0.00,WeatherDisplay:10.37,2013-11-21 16:53:00,
2013-11-21 10:54:00,41.0,35.0,28.97,NW,315,4.6,4.6,79,0.00,CLR,,0.00,WeatherDisplay:10.37,2013-11-21 16:54:00,
2013-11-21 10:55:00,41.0,35.0,28.97,NW,320,3.0,5.0,79,0.00,CLR,,0.00,WeatherDisplay:10.37,2013-11-21 16:55:00,
2013-11-21 10:58:00,41.0,35.0,28.97,NW,315,2.3,2.3,79,0.00,CLR,,0.00,WeatherDisplay:10.37,2013-11-21 16:58:00,
2013-11-21 10:59:00,41.0,35.0,28.97,NW,315,2.6,2.6,79,0.00,CLR,,0.00,WeatherDisplay:10.37,2013-11-21 16:59:00,
2013-11-21 11:00:00,41.0,35.3,28.97,NNW,338,3.8,3.8,80,0.00,CLR,,0.00,WeatherDisplay:10.37,2013-11-21 17:00:00,
2013-11-21 11:03:00,40.8,34.8,28.97,NW,315,4.6,4.6,79,0.00,CLR,,0.00,WeatherDisplay:10.37,2013-11-21 17:03:00,
2013-11-21 11:04:00,40.8,34.8,28.97,NW,315,4.6,4.6,79,0.00,CLR,,0.00,WeatherDisplay:10.37,2013-11-21 17:04:00,
2013-11-21 11:06:00,40.8,34.8,28.97,NW,315,4.6,4.6,79,0.00,CLR,,0.00,WeatherDisplay:10.37,2013-11-21 17:06:00,
2013-11-21 11:08:00,41.0,35.0,28.97,NNW,338,4.6,4.6,79,0.00,CLR,,0.00,WeatherDisplay:10.37,2013-11-21 17:08:00,
2013-11-21 11:09:00,41.0,35.0,28.97,North,0,3.5,3.5,79,0.00,CLR,,0.00,WeatherDisplay:10.37,2013-11-21 17:09:00,
2013-11-21 11:11:00,41.0,35.3,28.97,NW,315,5.8,5.8,80,0.00,CLR,,0.00,WeatherDisplay:10.37,2013-11-21 17:11:00,
2013-11-21 11:12:00,40.8,35.1,28.97,NW,315,5.8,5.8,80,0.00,CLR,,0.00,WeatherDisplay:10.37,2013-11-21 17:12:00,
2013-11-21 11:13:00,40.6,35.0,28.97,NNW,338,5.8,5.8,80,0.00,CLR,,0.00,WeatherDisplay:10.37,2013-11-21 17:13:00,
2013-11-21 11:14:00,40.6,35.0,28.97,WNW,292,4.6,4.6,80,0.00,CLR,,0.00,WeatherDisplay:10.37,2013-11-21 17:14:00,
2013-11-21 11:16:00,40.6,35.3,28.97,NW,315,3.5,3.5,81,0.00,CLR,,0.00,WeatherDisplay:10.37,2013-11-21 17:16:00,
2013-11-21 11:17:00,40.6,35.3,28.97,NW,315,3.5,3.5,81,0.00,CLR,,0.00,WeatherDisplay:10.37,2013-11-21 17:17:00,
2013-11-21 11:18:00,40.6,35.3,28.97,WNW,292,4.6,4.6,81,0.00,CLR,,0.00,WeatherDisplay:10.37,2013-11-21 17:18:00,
2013-11-21 11:19:00,40.6,35.3,28.97,NNW,338,3.5,3.5,81,0.00,CLR,,0.00,WeatherDisplay:10.37,2013-11-21 17:19:00,
2013-11-21 11:21:00,40.6,35.3,28.97,WNW,292,3.8,3.8,81,0.00,CLR,,0.00,WeatherDisplay:10.37,2013-11-21 17:21:00,
2013-11-21 11:22:00,40.5,35.1,28.97,NW,315,4.9,4.9,81,0.00,CLR,,0.00,WeatherDisplay:10.37,2013-11-21 17:22:00,
2013-11-21 11:23:00,40.5,35.1,28.97,NW,315,4.6,4.6,81,0.00,CLR,,0.00,WeatherDisplay:10.37,2013-11-21 17:23:00,
2013-11-21 11:24:00,40.5,35.1,28.97,North,0,4.6,4.6,81,0.00,CLR,,0.00,WeatherDisplay:10.37,2013-11-21 17:24:00,
2013-11-21 11:26:00,40.5,35.1,28.97,NW,315,3.5,3.5,81,0.00,CLR,,0.00,WeatherDisplay:10.37,2013-11-21 17:26:00,
2013-11-21 11:27:00,40.6,35.3,28.97,NW,315,4.6,4.6,81,0.00,CLR,,0.00,WeatherDisplay:10.37,2013-11-21 17:27:00,
2013-11-21 11:28:00,40.6,35.3,28.97,North,0,3.5,3.5,81,0.00,CLR,,0.00,WeatherDisplay:10.37,2013-11-21 17:28:00,
2013-11-21 11:29:00,40.6,35.3,28.97,North,0,4.6,4.6,81,0.00,CLR,,0.00,WeatherDisplay:10.37,2013-11-21 17:29:00,
2013-11-21 11:30:00,40.5,35.1,28.97,North,0,4.6,4.6,81,0.00,CLR,,0.00,WeatherDisplay:10.37,2013-11-21 17:30:00,
2013-11-21 11:32:00,40.6,35.3,28.97,NNW,338,3.5,3.5,81,0.00,CLR,,0.00,WeatherDisplay:10.37,2013-11-21 17:32:00,
2013-11-21 11:33:00,40.6,35.3,28.97,NNW,338,3.5,3.5,81,0.00,CLR,,0.00,WeatherDisplay:10.37,2013-11-21 17:33:00,
2013-11-21 11:34:00,40.6,35.3,28.97,NW,315,3.5,3.5,81,0.00,CLR,,0.00,WeatherDisplay:10.37,2013-11-21 17:34:00,
2013-11-21 11:35:00,40.6,35.3,28.97,NW,321,3.0,5.0,81,0.00,CLR,,0.00,WeatherDisplay:10.37,2013-11-21 17:35:00,
2013-11-21 11:37:00,40.6,35.3,28.97,NW,315,3.5,3.5,81,0.00,CLR,,0.00,WeatherDisplay:10.37,2013-11-21 17:37:00,
2013-11-21 11:38:00,40.8,35.4,28.97,NW,315,3.5,3.5,81,0.00,CLR,,0.00,WeatherDisplay:10.37,2013-11-21 17:38:00,
2013-11-21 11:39:00,41.0,35.3,28.97,NW,315,2.3,2.3,80,0.00,CLR,,0.00,WeatherDisplay:10.37,2013-11-21 17:39:00,
2013-11-21 11:40:00,41.0,35.6,28.97,NW,315,3.5,0.0,81,0.00,CLR,,0.00,WeatherDisplay:10.37,2013-11-21 17:40:00,
2013-11-21 11:42:00,41.0,35.3,28.97,NW,315,3.5,3.5,80,0.00,CLR,,0.00,WeatherDisplay:10.37,2013-11-21 17:42:00,
2013-11-21 11:44:00,41.2,35.8,28.97,NW,315,2.3,2.3,81,0.00,CLR,,0.00,WeatherDisplay:10.37,2013-11-21 17:44:00,
2013-11-21 11:45:00,41.4,36.0,28.97,WNW,292,1.6,0.0,81,0.00,CLR,,0.00,WeatherDisplay:10.37,2013-11-21 17:45:00,
2013-11-21 11:47:00,41.5,36.1,28.97,NW,315,3.5,3.5,81,0.00,CLR,,0.00,WeatherDisplay:10.37,2013-11-21 17:47:00,
2013-11-21 11:48:00,41.5,36.1,28.97,WNW,292,3.5,3.5,81,0.00,CLR,,0.00,WeatherDisplay:10.37,2013-11-21 17:48:00,
2013-11-21 11:50:00,41.5,35.8,28.97,NW,315,3.5,3.5,80,0.00,CLR,,0.00,WeatherDisplay:10.37,2013-11-21 17:50:00,
2013-11-21 11:52:00,41.7,36.0,28.97,NW,315,2.3,2.3,80,0.00,CLR,,0.00,WeatherDisplay:10.37,2013-11-21 17:52:00,
2013-11-21 11:53:00,41.7,36.0,28.97,WNW,292,1.2,0.0,80,0.00,CLR,,0.00,WeatherDisplay:10.37,2013-11-21 17:53:00,
2013-11-21 11:55:00,41.7,36.0,28.94,West,270,3.5,3.5,80,0.00,CLR,,0.00,WeatherDisplay:10.37,2013-11-21 17:55:00,
2013-11-21 11:57:00,41.9,35.9,28.94,WNW,292,2.3,2.3,79,0.00,CLR,,0.00,WeatherDisplay:10.37,2013-11-21 17:57:00,
2013-11-21 11:58:00,41.9,35.9,28.94,WNW,292,2.3,2.3,79,0.00,CLR,,0.00,WeatherDisplay:10.37,2013-11-21 17:58:00,
2013-11-21 12:00:00,41.9,35.9,28.94,WNW,292,1.6,0.0,79,0.00,CLR,,0.00,WeatherDisplay:10.37,2013-11-21 18:00:00,
2013-11-21 12:01:00,41.9,35.9,28.94,NW,315,1.2,1.2,79,0.00,CLR,,0.00,WeatherDisplay:10.37,2013-11-21 18:01:00,
2013-11-21 12:02:00,42.1,36.0,28.94,NW,315,2.3,2.3,79,0.00,CLR,,0.00,WeatherDisplay:10.37,2013-11-21 18:02:00,
2013-11-21 12:03:00,42.1,36.0,28.94,NW,315,2.3,2.3,79,0.00,CLR,,0.00,WeatherDisplay:10.37,2013-11-21 18:03:00,
2013-11-21 12:06:00,41.9,35.5,28.94,NW,315,3.6,3.6,78,0.00,CLR,,0.00,WeatherDisplay:10.37,2013-11-21 18:06:00,
2013-11-21 12:07:00,41.9,35.5,28.94,NW,315,3.5,3.5,78,0.00,CLR,,0.00,WeatherDisplay:10.37,2013-11-21 18:07:00,
2013-11-21 12:09:00,41.9,35.5,28.94,NNW,338,3.5,3.5,78,0.00,CLR,,0.00,WeatherDisplay:10.37,2013-11-21 18:09:00,
2013-11-21 12:11:00,41.9,35.5,28.94,NNE,22,3.5,3.5,78,0.00,CLR,,0.00,WeatherDisplay:10.37,2013-11-21 18:11:00,
2013-11-21 12:12:00,41.9,35.5,28.94,NNE,22,3.5,3.5,78,0.00,CLR,,0.00,WeatherDisplay:10.37,2013-11-21 18:12:00,
2013-11-21 12:13:00,41.9,35.2,28.94,NNE,22,2.9,2.9,77,0.00,CLR,,0.00,WeatherDisplay:10.37,2013-11-21 18:13:00,
2013-11-21 12:16:00,41.5,34.9,28.94,NNE,22,3.5,3.5,77,0.00,CLR,,0.00,WeatherDisplay:10.37,2013-11-21 18:16:00,
2013-11-21 12:17:00,41.5,34.9,28.94,NNE,22,2.3,2.3,77,0.00,CLR,,0.00,WeatherDisplay:10.37,2013-11-21 18:17:00,
2013-11-21 12:18:00,41.5,34.9,28.94,NNE,22,2.3,2.3,77,0.00,CLR,,0.00,WeatherDisplay:10.37,2013-11-21 18:18:00,
2013-11-21 12:21:00,41.5,34.9,28.94,NW,315,2.6,2.6,77,0.00,CLR,,0.00,WeatherDisplay:10.37,2013-11-21 18:21:00,
2013-11-21 12:23:00,41.5,34.9,28.94,NW,315,2.3,2.3,77,0.00,CLR,,0.00,WeatherDisplay:10.37,2013-11-21 18:23:00,
2013-11-21 12:26:00,41.5,34.9,28.97,NW,315,2.6,2.6,77,0.00,CLR,,0.00,WeatherDisplay:10.37,2013-11-21 18:26:00,
2013-11-21 12:28:00,41.5,34.9,28.97,NW,315,3.5,3.5,77,0.00,CLR,,0.00,WeatherDisplay:10.37,2013-11-21 18:28:00,
2013-11-21 12:31:00,41.7,35.0,28.97,NW,315,2.4,2.4,77,0.00,CLR,,0.00,WeatherDisplay:10.37,2013-11-21 18:31:00,
2013-11-21 12:32:00,41.7,35.0,28.97,NW,315,2.6,2.6,77,0.00,CLR,,0.00,WeatherDisplay:10.37,2013-11-21 18:32:00,
2013-11-21 12:33:00,41.7,35.0,28.97,NW,315,3.5,3.5,77,0.00,CLR,,0.00,WeatherDisplay:10.37,2013-11-21 18:33:00,
2013-11-21 12:34:00,41.7,35.0,28.97,NW,315,3.5,3.5,77,0.00,CLR,,0.00,WeatherDisplay:10.37,2013-11-21 18:34:00,
2013-11-21 12:36:00,41.5,34.5,28.97,NNE,22,4.6,4.6,76,0.00,CLR,,0.00,WeatherDisplay:10.37,2013-11-21 18:36:00,
2013-11-21 12:37:00,41.5,34.5,28.97,NE,45,3.5,3.5,76,0.00,CLR,,0.00,WeatherDisplay:10.37,2013-11-21 18:37:00,
2013-11-21 12:38:00,41.5,34.5,28.97,NNW,338,4.6,4.6,76,0.00,CLR,,0.00,WeatherDisplay:10.37,2013-11-21 18:38:00,
2013-11-21 12:40:00,41.5,34.5,28.97,NNW,346,3.0,5.0,76,0.00,CLR,,0.00,WeatherDisplay:10.37,2013-11-21 18:40:00,
2013-11-21 12:41:00,41.2,34.2,28.97,NNE,22,5.6,5.6,76,0.00,CLR,,0.00,WeatherDisplay:10.37,2013-11-21 18:41:00,
2013-11-21 12:42:00,41.2,34.2,28.97,NNW,338,5.8,5.8,76,0.00,CLR,,0.00,WeatherDisplay:10.37,2013-11-21 18:42:00,
2013-11-21 12:43:00,41.0,34.0,28.97,NNE,22,4.6,4.6,76,0.00,CLR,,0.00,WeatherDisplay:10.37,2013-11-21 18:43:00,
2013-11-21 12:45:00,41.0,34.0,28.97,NNW,338,5.8,5.8,76,0.00,CLR,,0.00,WeatherDisplay:10.37,2013-11-21 18:45:00,
2013-11-21 12:47:00,40.6,34.0,28.97,NNE,22,4.6,4.6,77,0.00,CLR,,0.00,WeatherDisplay:10.37,2013-11-21 18:47:00,
2013-11-21 12:48:00,40.6,34.0,28.97,NW,315,4.6,4.6,77,0.00,CLR,,0.00,WeatherDisplay:10.37,2013-11-21 18:48:00,
2013-11-21 12:49:00,40.6,34.0,28.97,North,0,4.6,4.6,77,0.00,CLR,,0.00,WeatherDisplay:10.37,2013-11-21 18:49:00,
2013-11-21 12:51:00,40.6,34.3,28.97,NE,45,4.6,4.6,78,0.00,CLR,,0.00,WeatherDisplay:10.37,2013-11-21 18:51:00,
2013-11-21 12:52:00,40.5,34.1,28.97,NW,315,4.6,4.6,78,0.00,CLR,,0.00,WeatherDisplay:10.37,2013-11-21 18:52:00,
2013-11-21 12:53:00,40.5,34.1,28.97,North,0,4.6,4.6,78,0.00,CLR,,0.00,WeatherDisplay:10.37,2013-11-21 18:53:00,
2013-11-21 12:54:00,40.5,34.1,28.97,NNE,22,3.5,3.5,78,0.00,CLR,,0.00,WeatherDisplay:10.37,2013-11-21 18:54:00,
2013-11-21 12:56:00,40.5,34.1,28.97,NNE,22,3.5,3.5,78,0.00,CLR,,0.00,WeatherDisplay:10.37,2013-11-21 18:56:00,
2013-11-21 12:57:00,40.5,34.5,28.97,North,0,3.5,3.5,79,0.00,CLR,,0.00,WeatherDisplay:10.37,2013-11-21 18:57:00,
2013-11-21 12:58:00,40.5,34.5,28.97,NNE,22,3.8,4.0,79,0.00,CLR,,0.00,WeatherDisplay:10.37,2013-11-21 18:58:00,
2013-11-21 12:59:00,40.5,34.5,28.97,NNW,338,4.6,4.6,79,0.00,CLR,,0.00,WeatherDisplay:10.37,2013-11-21 18:59:00,
2013-11-21 13:01:00,40.5,34.5,28.97,NNW,338,4.6,4.6,79,0.00,CLR,,0.00,WeatherDisplay:10.37,2013-11-21 19:01:00,
2013-11-21 13:02:00,40.5,34.8,28.97,North,0,4.6,4.6,80,0.00,CLR,,0.00,WeatherDisplay:10.37,2013-11-21 19:02:00,
2013-11-21 13:03:00,40.5,34.8,28.97,North,0,4.6,4.6,80,0.00,CLR,,0.00,WeatherDisplay:10.37,2013-11-21 19:03:00,
2013-11-21 13:04:00,40.5,34.8,28.97,NNW,338,4.9,4.9,80,0.00,CLR,,0.00,WeatherDisplay:10.37,2013-11-21 19:04:00,
2013-11-21 13:06:00,40.3,34.6,28.97,North,0,5.8,5.8,80,0.00,CLR,,0.00,WeatherDisplay:10.37,2013-11-21 19:06:00,
2013-11-21 13:07:00,40.3,34.6,28.97,NNW,338,5.8,5.8,80,0.00,CLR,,0.00,WeatherDisplay:10.37,2013-11-21 19:07:00,
2013-11-21 13:08:00,40.3,34.6,28.97,NNW,338,5.8,5.8,80,0.00,CLR,,0.00,WeatherDisplay:10.37,2013-11-21 19:08:00,
2013-11-21 13:09:00,40.3,34.6,28.97,NNE,22,5.8,5.8,80,0.00,CLR,,0.00,WeatherDisplay:10.37,2013-11-21 19:09:00,
2013-11-21 13:12:00,40.1,34.4,28.97,North,0,3.5,3.5,80,0.00,CLR,,0.00,WeatherDisplay:10.37,2013-11-21 19:12:00,
2013-11-21 13:13:00,40.1,34.4,28.97,North,0,3.5,3.5,80,0.00,CLR,,0.00,WeatherDisplay:10.37,2013-11-21 19:13:00,
2013-11-21 13:15:00,40.1,34.4,28.97,North,356,3.0,5.0,80,0.00,CLR,,0.00,WeatherDisplay:10.37,2013-11-21 19:15:00,
2013-11-21 13:18:00,39.9,34.2,28.97,NNW,338,4.9,4.9,80,0.00,CLR,,0.00,WeatherDisplay:10.37,2013-11-21 19:18:00,
2013-11-21 13:19:00,39.9,34.6,28.97,NNW,338,5.8,5.8,81,0.00,CLR,,0.00,WeatherDisplay:10.37,2013-11-21 19:19:00,
2013-11-21 13:20:00,39.9,34.2,28.97,North,349,5.0,6.0,80,0.00,CLR,,0.00,WeatherDisplay:10.37,2013-11-21 19:20:00,
2013-11-21 13:23:00,39.9,34.6,28.97,North,0,5.8,5.8,81,0.00,CLR,,0.00,WeatherDisplay:10.37,2013-11-21 19:23:00,
2013-11-21 13:25:00,39.9,34.9,28.97,NNW,338,3.6,3.6,82,0.00,CLR,,0.00,WeatherDisplay:10.37,2013-11-21 19:25:00,
2013-11-21 13:28:00,39.9,34.9,28.97,NNW,338,5.8,5.8,82,0.00,CLR,,0.00,WeatherDisplay:10.37,2013-11-21 19:28:00,
2013-11-21 13:29:00,39.7,34.7,28.97,North,0,5.8,5.8,82,0.00,CLR,,0.00,WeatherDisplay:10.37,2013-11-21 19:29:00,
2013-11-21 13:30:00,39.7,34.7,28.97,NNW,348,3.0,6.0,82,0.00,CLR,,0.00,WeatherDisplay:10.37,2013-11-21 19:30:00,
2013-11-21 13:31:00,39.7,34.7,28.97,NNE,22,4.6,4.6,82,0.00,CLR,,0.00,WeatherDisplay:10.37,2013-11-21 19:31:00,
2013-11-21 13:33:00,39.7,34.7,28.97,North,0,4.3,4.3,82,0.00,CLR,,0.00,WeatherDisplay:10.37,2013-11-21 19:33:00,
2013-11-21 13:34:00,39.9,34.9,28.97,North,0,3.5,3.5,82,0.00,CLR,,0.00,WeatherDisplay:10.37,2013-11-21 19:34:00,
2013-11-21 13:35:00,39.9,34.8,28.97,North,352,3.0,6.0,82,0.00,CLR,,0.00,WeatherDisplay:10.37,2013-11-21 19:35:00,
2013-11-21 13:37:00,39.7,34.7,28.97,NNW,338,5.8,5.8,82,0.00,CLR,,0.00,WeatherDisplay:10.37,2013-11-21 19:37:00,
2013-11-21 13:38:00,39.7,34.7,28.97,North,0,4.6,4.6,82,0.00,CLR,,0.00,WeatherDisplay:10.37,2013-11-21 19:38:00,
2013-11-21 13:39:00,39.7,34.7,28.97,NW,315,5.8,5.8,82,0.00,CLR,,0.00,WeatherDisplay:10.37,2013-11-21 19:39:00,
2013-11-21 13:40:00,39.7,34.7,28.97,North,0,5.8,5.8,82,0.00,CLR,,0.00,WeatherDisplay:10.37,2013-11-21 19:40:00,
2013-11-21 13:42:00,39.7,34.7,28.97,NNE,22,5.8,5.8,82,0.00,CLR,,0.00,WeatherDisplay:10.37,2013-11-21 19:42:00,
2013-11-21 13:43:00,39.7,34.7,28.97,NNW,338,4.6,4.6,82,0.00,CLR,,0.00,WeatherDisplay:10.37,2013-11-21 19:43:00,
2013-11-21 13:44:00,39.7,34.7,28.97,NNE,22,4.6,4.6,82,0.00,CLR,,0.00,WeatherDisplay:10.37,2013-11-21 19:44:00,
2013-11-21 13:45:00,39.6,34.5,28.97,North,0,4.3,4.3,82,0.00,CLR,,0.00,WeatherDisplay:10.37,2013-11-21 19:45:00,
2013-11-21 13:47:00,39.6,34.5,28.97,NNW,338,4.6,4.6,82,0.00,CLR,,0.00,WeatherDisplay:10.37,2013-11-21 19:47:00,
2013-11-21 13:48:00,39.6,34.5,28.97,NNE,22,6.0,6.0,82,0.00,CLR,,0.00,WeatherDisplay:10.37,2013-11-21 19:48:00,
2013-11-21 13:49:00,39.6,34.8,28.97,NNW,338,5.8,5.8,83,0.00,CLR,,0.00,WeatherDisplay:10.37,2013-11-21 19:49:00,
2013-11-21 13:50:00,39.6,34.8,28.97,NNW,338,4.6,4.6,83,0.00,CLR,,0.00,WeatherDisplay:10.37,2013-11-21 19:50:00,
2013-11-21 13:53:00,39.4,34.6,28.97,NNW,338,5.8,5.8,83,0.00,CLR,,0.00,WeatherDisplay:10.37,2013-11-21 19:53:00,
2013-11-21 13:54:00,39.6,34.8,28.97,NNW,338,4.0,4.0,83,0.00,CLR,,0.00,WeatherDisplay:10.37,2013-11-21 19:54:00,
2013-11-21 13:55:00,39.6,34.8,28.97,NNW,338,4.6,4.6,83,0.00,CLR,,0.00,WeatherDisplay:10.37,2013-11-21 19:55:00,
2013-11-21 13:56:00,39.4,34.6,28.97,North,0,5.6,5.9,83,0.00,CLR,,0.00,WeatherDisplay:10.37,2013-11-21 19:56:00,
2013-11-21 13:58:00,39.4,34.6,28.97,North,0,5.6,5.6,83,0.00,CLR,,0.00,WeatherDisplay:10.37,2013-11-21 19:58:00,
2013-11-21 13:59:00,39.4,34.6,28.97,North,0,5.8,5.8,83,0.00,CLR,,0.00,WeatherDisplay:10.37,2013-11-21 19:59:00,
2013-11-21 14:00:00,39.4,34.9,28.97,North,0,5.8,5.8,84,0.00,CLR,,0.00,WeatherDisplay:10.37,2013-11-21 20:00:00,
2013-11-21 14:01:00,39.4,34.9,28.97,North,0,6.4,6.4,84,0.00,CLR,,0.00,WeatherDisplay:10.37,2013-11-21 20:01:00,
2013-11-21 14:03:00,39.4,34.6,28.97,NNW,338,5.8,5.8,83,0.00,CLR,,0.00,WeatherDisplay:10.37,2013-11-21 20:03:00,
2013-11-21 14:04:00,39.4,34.6,28.97,NNW,338,5.8,5.8,83,0.00,CLR,,0.00,WeatherDisplay:10.37,2013-11-21 20:04:00,
2013-11-21 14:05:00,39.2,34.5,28.97,NW,315,5.8,5.8,83,0.00,CLR,,0.00,WeatherDisplay:10.37,2013-11-21 20:05:00,
2013-11-21 14:06:00,39.2,34.5,28.97,NNW,338,5.8,5.8,83,0.00,CLR,,0.00,WeatherDisplay:10.37,2013-11-21 20:06:00,
2013-11-21 14:09:00,39.2,34.8,28.97,NNW,338,5.8,5.8,84,0.00,CLR,,0.00,WeatherDisplay:10.37,2013-11-21 20:09:00,
2013-11-21 14:10:00,39.2,34.8,28.97,NNW,338,5.8,5.8,84,0.00,CLR,,0.00,WeatherDisplay:10.37,2013-11-21 20:10:00,
2013-11-21 14:11:00,39.2,34.8,28.97,North,0,5.8,5.8,84,0.00,CLR,,0.00,WeatherDisplay:10.37,2013-11-21 20:11:00,
2013-11-21 14:12:00,39.2,34.8,28.97,NNE,22,5.8,5.8,84,0.00,CLR,,0.00,WeatherDisplay:10.37,2013-11-21 20:12:00,
2013-11-21 14:14:00,39.2,34.8,28.97,NW,315,4.6,4.6,84,0.00,CLR,,0.00,WeatherDisplay:10.37,2013-11-21 20:14:00,
2013-11-21 14:15:00,39.2,34.8,28.97,NNW,338,4.6,4.6,84,0.00,CLR,,0.00,WeatherDisplay:10.37,2013-11-21 20:15:00,
2013-11-21 14:16:00,39.2,34.8,28.97,NW,315,4.6,4.6,84,0.00,CLR,,0.00,WeatherDisplay:10.37,2013-11-21 20:16:00,
2013-11-21 14:17:00,39.4,34.9,28.97,NNW,338,4.6,4.6,84,0.00,CLR,,0.00,WeatherDisplay:10.37,2013-11-21 20:17:00,
2013-11-21 14:19:00,39.2,34.8,28.97,WNW,292,5.8,5.8,84,0.00,CLR,,0.00,WeatherDisplay:10.37,2013-11-21 20:19:00,
2013-11-21 14:20:00,39.2,34.8,28.97,NNW,342,5.0,6.0,84,0.00,CLR,,0.00,WeatherDisplay:10.37,2013-11-21 20:20:00,
2013-11-21 14:21:00,39.2,34.8,28.97,North,0,5.4,5.4,84,0.00,CLR,,0.00,WeatherDisplay:10.37,2013-11-21 20:21:00,
2013-11-21 14:22:00,39.2,34.8,28.97,NW,315,6.9,6.9,84,0.00,CLR,,0.00,WeatherDisplay:10.37,2013-11-21 20:22:00,
2013-11-21 14:25:00,39.2,34.5,28.97,NNW,329,6.0,8.0,83,0.00,CLR,,0.00,WeatherDisplay:10.37,2013-11-21 20:25:00,
2013-11-21 14:26:00,39.2,34.5,28.97,North,0,6.9,6.9,83,0.00,CLR,,0.00,WeatherDisplay:10.37,2013-11-21 20:26:00,
2013-11-21 14:27:00,39.2,34.5,28.97,NNW,338,5.8,5.8,83,0.00,CLR,,0.00,WeatherDisplay:10.37,2013-11-21 20:27:00,
2013-11-21 14:30:00,39.2,34.5,28.97,NNW,333,5.0,7.0,83,0.00,CLR,,0.00,WeatherDisplay:10.37,2013-11-21 20:30:00,
2013-11-21 14:31:00,39.2,34.2,28.97,NNW,338,5.8,5.8,82,0.00,CLR,,0.00,WeatherDisplay:10.37,2013-11-21 20:31:00,
2013-11-21 14:32:00,39.2,34.2,28.97,NNW,338,8.1,8.1,82,0.00,CLR,,0.00,WeatherDisplay:10.37,2013-11-21 20:32:00,
2013-11-21 14:35:00,39.2,33.9,28.97,NW,315,7.4,7.4,81,0.00,CLR,,0.00,WeatherDisplay:10.37,2013-11-21 20:35:00,
2013-11-21 14:36:00,39.2,33.9,28.97,NW,315,6.9,6.9,81,0.00,CLR,,0.00,WeatherDisplay:10.37,2013-11-21 20:36:00,
2013-11-21 14:37:00,39.2,33.9,28.97,NW,315,6.9,6.9,81,0.00,CLR,,0.00,WeatherDisplay:10.37,2013-11-21 20:37:00,
2013-11-21 14:40:00,39.2,33.9,28.94,NNW,338,8.1,8.1,81,0.00,CLR,,0.00,WeatherDisplay:10.37,2013-11-21 20:40:00,
2013-11-21 14:41:00,39.2,33.9,28.94,NW,315,8.1,8.1,81,0.00,CLR,,0.00,WeatherDisplay:10.37,2013-11-21 20:41:00,
2013-11-21 14:42:00,39.2,33.9,28.94,NNW,338,5.8,5.8,81,0.00,CLR,,0.00,WeatherDisplay:10.37,2013-11-21 20:42:00,
2013-11-21 14:45:00,39.2,33.9,28.94,NW,315,5.8,5.8,81,0.00,CLR,,0.00,WeatherDisplay:10.37,2013-11-21 20:45:00,
2013-11-21 14:46:00,39.2,33.9,28.94,NNW,338,5.9,5.9,81,0.00,CLR,,0.00,WeatherDisplay:10.37,2013-11-21 20:46:00,
2013-11-21 14:47:00,39.2,33.9,28.94,North,0,8.1,8.1,81,0.00,CLR,,0.00,WeatherDisplay:10.37,2013-11-21 20:47:00,
2013-11-21 14:48:00,39.2,33.9,28.94,NNW,338,8.1,8.1,81,0.00,CLR,,0.00,WeatherDisplay:10.37,2013-11-21 20:48:00,
2013-11-21 14:50:00,39.2,33.9,28.94,NNW,338,6.9,6.9,81,0.00,CLR,,0.00,WeatherDisplay:10.37,2013-11-21 20:50:00,
2013-11-21 14:51:00,39.2,33.9,28.94,West,270,5.8,5.8,81,0.00,CLR,,0.00,WeatherDisplay:10.37,2013-11-21 20:51:00,
2013-11-21 14:52:00,39.2,33.9,28.94,NNW,338,5.8,5.8,81,0.00,CLR,,0.00,WeatherDisplay:10.37,2013-11-21 20:52:00,
2013-11-21 14:53:00,39.2,33.9,28.94,NW,315,4.9,4.9,81,0.00,CLR,,0.00,WeatherDisplay:10.37,2013-11-21 20:53:00,
2013-11-21 14:55:00,39.2,33.9,28.97,NNW,338,6.9,6.9,81,0.00,CLR,,0.00,WeatherDisplay:10.37,2013-11-21 20:55:00,
2013-11-21 14:57:00,39.2,33.9,28.97,NW,315,8.1,8.1,81,0.00,CLR,,0.00,WeatherDisplay:10.37,2013-11-21 20:57:00,
2013-11-21 14:58:00,39.2,33.9,28.97,NW,315,5.8,5.8,81,0.00,CLR,,0.00,WeatherDisplay:10.37,2013-11-21 20:58:00,
2013-11-21 14:59:00,39.2,33.9,28.97,NW,315,5.8,5.8,81,0.00,CLR,,0.00,WeatherDisplay:10.37,2013-11-21 20:59:00,
2013-11-21 15:01:00,39.2,33.9,28.97,NNW,338,6.2,6.2,81,0.00,CLR,,0.00,WeatherDisplay:10.37,2013-11-21 21:01:00,
2013-11-21 15:03:00,39.2,33.9,28.97,WNW,292,6.9,6.9,81,0.00,CLR,,0.00,WeatherDisplay:10.37,2013-11-21 21:03:00,
2013-11-21 15:04:00,39.2,33.9,28.97,NNW,338,6.9,6.9,81,0.00,CLR,,0.00,WeatherDisplay:10.37,2013-11-21 21:04:00,
2013-11-21 15:06:00,39.2,33.9,28.97,NNW,338,5.8,5.8,81,0.00,CLR,,0.00,WeatherDisplay:10.37,2013-11-21 21:06:00,
2013-11-21 15:08:00,39.0,33.7,28.97,WNW,292,5.8,5.8,81,0.00,CLR,,0.00,WeatherDisplay:10.37,2013-11-21 21:08:00,
2013-11-21 15:09:00,39.0,33.7,28.97,WNW,292,5.9,5.9,81,0.00,CLR,,0.00,WeatherDisplay:10.37,2013-11-21 21:09:00,
2013-11-21 15:10:00,39.0,33.7,28.97,NW,321,5.0,8.0,81,0.00,CLR,,0.00,WeatherDisplay:10.37,2013-11-21 21:10:00,
2013-11-21 15:11:00,39.0,33.7,28.97,NNW,338,5.8,5.8,81,0.00,CLR,,0.00,WeatherDisplay:10.37,2013-11-21 21:11:00,
2013-11-21 15:12:00,39.0,33.7,28.97,NW,315,5.8,5.8,81,0.00,CLR,,0.00,WeatherDisplay:10.37,2013-11-21 21:12:00,
2013-11-21 15:13:00,39.0,33.7,28.97,NNW,338,4.6,4.6,81,0.00,CLR,,0.00,WeatherDisplay:10.37,2013-11-21 21:13:00,
2013-11-21 15:14:00,39.0,33.7,28.97,WNW,292,4.9,4.9,81,0.00,CLR,,0.00,WeatherDisplay:10.37,2013-11-21 21:14:00,
2013-11-21 15:15:00,39.0,34.0,28.97,NNW,338,5.8,5.8,82,0.00,CLR,,0.00,WeatherDisplay:10.37,2013-11-21 21:15:00,
2013-11-21 15:16:00,39.0,34.0,28.97,WNW,292,8.1,8.1,82,0.00,CLR,,0.00,WeatherDisplay:10.37,2013-11-21 21:16:00,
2013-11-21 15:17:00,38.8,33.8,28.97,WNW,292,8.1,8.1,82,0.00,CLR,,0.00,WeatherDisplay:10.37,2013-11-21 21:17:00,
2013-11-21 15:18:00,38.8,33.8,28.97,WNW,292,8.1,8.1,82,0.00,CLR,,0.00,WeatherDisplay:10.37,2013-11-21 21:18:00,
2013-11-21 15:19:00,38.8,33.8,28.97,NW,315,4.6,4.6,82,0.00,CLR,,0.00,WeatherDisplay:10.37,2013-11-21 21:19:00,
2013-11-21 15:20:00,38.8,33.8,28.97,NW,314,5.0,8.0,82,0.00,CLR,,0.00,WeatherDisplay:10.37,2013-11-21 21:20:00,
2013-11-21 15:22:00,38.8,34.1,28.97,NNW,338,5.8,5.8,83,0.00,CLR,,0.00,WeatherDisplay:10.37,2013-11-21 21:22:00,
2013-11-21 15:24:00,38.8,34.1,28.97,NW,315,8.1,8.1,83,0.00,CLR,,0.00,WeatherDisplay:10.37,2013-11-21 21:24:00,
2013-11-21 15:25:00,38.8,34.1,28.97,NW,315,6.9,6.9,83,0.00,CLR,,0.00,WeatherDisplay:10.37,2013-11-21 21:25:00,
2013-11-21 15:27:00,38.8,34.1,28.97,WNW,292,5.8,5.8,83,0.00,CLR,,0.00,WeatherDisplay:10.37,2013-11-21 21:27:00,
2013-11-21 15:29:00,38.8,34.1,28.97,West,270,5.8,5.8,83,0.00,CLR,,0.00,WeatherDisplay:10.37,2013-11-21 21:29:00,
2013-11-21 15:30:00,38.7,33.9,28.97,NNW,338,6.9,6.9,83,0.00,CLR,,0.00,WeatherDisplay:10.37,2013-11-21 21:30:00,
2013-11-21 15:31:00,38.7,33.9,28.97,WNW,292,8.1,8.1,83,0.00,CLR,,0.00,WeatherDisplay:10.37,2013-11-21 21:31:00,
2013-11-21 15:32:00,38.7,33.9,28.97,West,270,8.1,8.1,83,0.00,CLR,,0.00,WeatherDisplay:10.37,2013-11-21 21:32:00,
2013-11-21 15:34:00,38.7,33.9,28.97,WNW,292,9.0,9.0,83,0.00,CLR,,0.00,WeatherDisplay:10.37,2013-11-21 21:34:00,
2013-11-21 15:36:00,38.7,33.9,28.97,NW,315,9.2,9.2,83,0.00,CLR,,0.00,WeatherDisplay:10.37,2013-11-21 21:36:00,
2013-11-21 15:38:00,38.7,34.2,28.97,WNW,292,7.4,7.4,84,0.00,CLR,,0.00,WeatherDisplay:10.37,2013-11-21 21:38:00,
2013-11-21 15:39:00,38.7,34.2,28.97,NW,315,6.4,6.4,84,0.00,CLR,,0.00,WeatherDisplay:10.37,2013-11-21 21:39:00,
2013-11-21 15:41:00,38.7,34.2,28.97,WNW,292,6.9,6.9,84,0.00,CLR,,0.00,WeatherDisplay:10.37,2013-11-21 21:41:00,
2013-11-21 15:42:00,38.7,34.2,28.97,WNW,292,8.1,8.1,84,0.00,CLR,,0.00,WeatherDisplay:10.37,2013-11-21 21:42:00,
2013-11-21 15:43:00,38.7,34.2,28.97,NW,315,8.1,8.1,84,0.00,CLR,,0.00,WeatherDisplay:10.37,2013-11-21 21:43:00,
2013-11-21 15:44:00,38.7,34.2,28.97,WNW,292,6.9,6.9,84,0.00,CLR,,0.00,WeatherDisplay:10.37,2013-11-21 21:44:00,
2013-11-21 15:46:00,38.7,34.2,28.97,NW,315,6.9,6.9,84,0.00,CLR,,0.00,WeatherDisplay:10.37,2013-11-21 21:46:00,
2013-11-21 15:47:00,38.7,34.2,28.97,NW,315,4.6,4.6,84,0.00,CLR,,0.00,WeatherDisplay:10.37,2013-11-21 21:47:00,
2013-11-21 15:48:00,38.7,34.2,28.97,North,0,4.6,4.6,84,0.00,CLR,,0.00,WeatherDisplay:10.37,2013-11-21 21:48:00,
2013-11-21 15:50:00,38.7,34.2,28.97,NW,315,3.5,3.5,84,0.00,CLR,,0.00,WeatherDisplay:10.37,2013-11-21 21:50:00,
2013-11-21 15:51:00,38.7,34.2,28.97,NW,315,3.5,3.5,84,0.00,CLR,,0.00,WeatherDisplay:10.37,2013-11-21 21:51:00,
2013-11-21 15:52:00,38.7,34.2,28.97,NW,315,3.5,3.5,84,0.00,CLR,,0.00,WeatherDisplay:10.37,2013-11-21 21:52:00,
2013-11-21 15:53:00,38.7,34.2,28.97,NW,315,3.5,3.5,84,0.00,CLR,,0.00,WeatherDisplay:10.37,2013-11-21 21:53:00,
2013-11-21 15:55:00,38.7,34.2,29.00,WNW,292,3.6,3.6,84,0.00,CLR,,0.00,WeatherDisplay:10.37,2013-11-21 21:55:00,
2013-11-21 15:56:00,38.7,34.2,29.00,NNW,338,4.6,4.6,84,0.00,CLR,,0.00,WeatherDisplay:10.37,2013-11-21 21:56:00,
2013-11-21 15:58:00,38.7,34.2,29.00,NW,315,6.9,6.9,84,0.00,CLR,,0.00,WeatherDisplay:10.37,2013-11-21 21:58:00,
2013-11-21 16:00:00,38.7,34.2,29.00,NW,315,3.5,3.5,84,0.00,CLR,,0.00,WeatherDisplay:10.37,2013-11-21 22:00:00,
2013-11-21 16:01:00,38.7,34.2,29.00,WNW,292,3.5,3.5,84,0.00,CLR,,0.00,WeatherDisplay:10.37,2013-11-21 22:01:00,
2013-11-21 16:03:00,38.7,34.2,29.00,NW,315,4.6,4.6,84,0.00,CLR,,0.00,WeatherDisplay:10.37,2013-11-21 22:03:00,
2013-11-21 16:04:00,38.7,34.2,29.00,NNW,338,4.9,4.9,84,0.00,CLR,,0.00,WeatherDisplay:10.37,2013-11-21 22:04:00,
2013-11-21 16:05:00,38.7,34.2,29.00,WNW,292,4.7,4.7,84,0.00,CLR,,0.00,WeatherDisplay:10.37,2013-11-21 22:05:00,
2013-11-21 16:06:00,38.7,34.2,29.00,NNW,338,4.6,4.6,84,0.00,CLR,,0.00,WeatherDisplay:10.37,2013-11-21 22:06:00,
2013-11-21 16:08:00,38.7,34.2,29.00,NNW,338,5.8,5.8,84,0.00,CLR,,0.00,WeatherDisplay:10.37,2013-11-21 22:08:00,
2013-11-21 16:09:00,38.7,34.2,29.00,NNW,338,4.6,4.6,84,0.00,CLR,,0.00,WeatherDisplay:10.37,2013-11-21 22:09:00,
2013-11-21 16:10:00,38.7,34.5,29.00,NNW,338,4.6,4.6,85,0.00,CLR,,0.00,WeatherDisplay:10.37,2013-11-21 22:10:00,
2013-11-21 16:11:00,38.7,34.5,29.00,NNW,338,4.6,4.6,85,0.00,CLR,,0.00,WeatherDisplay:10.37,2013-11-21 22:11:00,
2013-11-21 16:13:00,38.5,34.4,29.00,North,0,3.6,3.6,85,0.00,CLR,,0.00,WeatherDisplay:10.37,2013-11-21 22:13:00,
2013-11-21 16:14:00,38.5,34.4,29.00,NW,315,4.6,4.6,85,0.00,CLR,,0.00,WeatherDisplay:10.37,2013-11-21 22:14:00,
2013-11-21 16:15:00,38.5,34.4,29.00,North,0,4.6,4.6,85,0.00,CLR,,0.00,WeatherDisplay:10.37,2013-11-21 22:15:00,
2013-11-21 16:16:00,38.5,34.4,29.00,NNW,338,3.5,3.5,85,0.00,CLR,,0.00,WeatherDisplay:10.37,2013-11-21 22:16:00,
2013-11-21 16:18:00,38.5,34.4,29.00,NNW,338,4.6,4.6,85,0.00,CLR,,0.00,WeatherDisplay:10.37,2013-11-21 22:18:00,
2013-11-21 16:19:00,38.5,34.4,29.00,NNW,338,4.6,4.6,85,0.00,CLR,,0.00,WeatherDisplay:10.37,2013-11-21 22:19:00,
2013-11-21 16:20:00,38.5,34.4,29.00,NNW,338,4.9,4.9,85,0.00,CLR,,0.00,WeatherDisplay:10.37,2013-11-21 22:20:00,
2013-11-21 16:21:00,38.5,34.4,29.00,West,270,5.8,5.8,85,0.00,CLR,,0.00,WeatherDisplay:10.37,2013-11-21 22:21:00,
2013-11-21 16:23:00,38.5,34.4,29.00,North,0,4.6,4.6,85,0.00,CLR,,0.00,WeatherDisplay:10.37,2013-11-21 22:23:00,
2013-11-21 16:24:00,38.5,34.4,29.00,NW,315,3.5,3.5,85,0.00,CLR,,0.00,WeatherDisplay:10.37,2013-11-21 22:24:00,
2013-11-21 16:25:00,38.5,34.4,29.00,NNW,338,4.6,4.6,85,0.00,CLR,,0.00,WeatherDisplay:10.37,2013-11-21 22:25:00,
2013-11-21 16:26:00,38.5,34.4,29.00,North,0,3.5,3.5,85,0.00,CLR,,0.00,WeatherDisplay:10.37,2013-11-21 22:26:00,
2013-11-21 16:28:00,38.5,34.4,29.00,NW,315,3.6,3.6,85,0.00,CLR,,0.00,WeatherDisplay:10.37,2013-11-21 22:28:00,
2013-11-21 16:29:00,38.5,34.4,29.00,NW,315,3.5,3.5,85,0.00,CLR,,0.00,WeatherDisplay:10.37,2013-11-21 22:29:00,
2013-11-21 16:30:00,38.5,34.4,29.00,North,0,3.5,3.5,85,0.00,CLR,,0.00,WeatherDisplay:10.37,2013-11-21 22:30:00,
2013-11-21 16:31:00,38.5,34.4,29.00,North,0,4.0,4.0,85,0.00,CLR,,0.00,WeatherDisplay:10.37,2013-11-21 22:31:00,
2013-11-21 16:32:00,38.5,34.4,29.00,NNW,338,3.5,4.0,85,0.00,CLR,,0.00,WeatherDisplay:10.37,2013-11-21 22:32:00,
2013-11-21 16:34:00,38.5,34.7,29.00,WNW,292,4.6,4.6,86,0.00,CLR,,0.00,WeatherDisplay:10.37,2013-11-21 22:34:00,
2013-11-21 16:35:00,38.5,34.7,29.00,NW,315,4.6,4.6,86,0.00,CLR,,0.00,WeatherDisplay:10.37,2013-11-21 22:35:00,
2013-11-21 16:36:00,38.5,34.7,29.00,North,0,4.6,4.6,86,0.00,CLR,,0.00,WeatherDisplay:10.37,2013-11-21 22:36:00,
2013-11-21 16:37:00,38.5,34.7,29.00,NNW,338,4.6,4.6,86,0.00,CLR,,0.00,WeatherDisplay:10.37,2013-11-21 22:37:00,
2013-11-21 16:39:00,38.5,34.7,29.00,NW,315,5.8,5.8,86,0.00,CLR,,0.00,WeatherDisplay:10.37,2013-11-21 22:39:00,
2013-11-21 16:40:00,38.5,34.7,29.00,NNW,338,5.8,5.8,86,0.00,CLR,,0.00,WeatherDisplay:10.37,2013-11-21 22:40:00,
2013-11-21 16:41:00,38.5,34.7,29.00,North,0,6.0,6.0,86,0.00,CLR,,0.00,WeatherDisplay:10.37,2013-11-21 22:41:00,
2013-11-21 16:42:00,38.5,34.7,29.00,NW,315,5.8,5.8,86,0.00,CLR,,0.00,WeatherDisplay:10.37,2013-11-21 22:42:00,
2013-11-21 16:44:00,38.5,34.7,29.00,NNW,338,5.8,5.8,86,0.00,CLR,,0.00,WeatherDisplay:10.37,2013-11-21 22:44:00,
2013-11-21 16:45:00,38.5,34.7,29.00,NNE,22,5.6,5.6,86,0.00,CLR,,0.00,WeatherDisplay:10.37,2013-11-21 22:45:00,
2013-11-21 16:46:00,38.5,34.7,29.00,North,0,4.9,4.9,86,0.00,CLR,,0.00,WeatherDisplay:10.37,2013-11-21 22:46:00,
2013-11-21 16:48:00,38.5,34.7,29.00,North,0,4.6,4.6,86,0.00,CLR,,0.00,WeatherDisplay:10.37,2013-11-21 22:48:00,
2013-11-21 16:49:00,38.3,34.5,29.00,NNW,338,5.8,5.8,86,0.00,CLR,,0.00,WeatherDisplay:10.37,2013-11-21 22:49:00,
2013-11-21 16:50:00,38.3,34.5,29.00,NNW,338,6.9,6.9,86,0.00,CLR,,0.00,WeatherDisplay:10.37,2013-11-21 22:50:00,
2013-11-21 16:51:00,38.3,34.5,29.00,NNW,338,6.9,6.9,86,0.00,CLR,,0.00,WeatherDisplay:10.37,2013-11-21 22:51:00,
2013-11-21 16:53:00,38.3,34.5,29.00,North,0,8.7,8.7,86,0.00,CLR,,0.00,WeatherDisplay:10.37,2013-11-21 22:53:00,
2013-11-21 16:54:00,38.1,34.3,29.00,North,0,10.4,10.4,86,0.00,CLR,,0.00,WeatherDisplay:10.37,2013-11-21 22:54:00,
2013-11-21 16:55:00,38.1,34.0,29.00,North,0,12.5,12.5,85,0.00,CLR,,0.00,WeatherDisplay:10.37,2013-11-21 22:55:00,
2013-11-21 16:56:00,38.1,34.0,29.00,North,0,12.7,12.7,85,0.00,CLR,,0.00,WeatherDisplay:10.37,2013-11-21 22:56:00,
2013-11-21 16:57:00,38.1,34.0,29.00,North,0,12.7,12.7,85,0.00,CLR,,0.00,WeatherDisplay:10.37,2013-11-21 22:57:00,
2013-11-21 16:58:00,38.1,34.0,29.00,NNW,338,6.9,6.9,85,0.00,CLR,,0.00,WeatherDisplay:10.37,2013-11-21 22:58:00,
2013-11-21 17:00:00,38.1,34.0,29.00,NW,315,5.8,5.8,85,0.00,CLR,,0.00,WeatherDisplay:10.37,2013-11-21 23:00:00,
2013-11-21 17:01:00,38.1,34.0,29.00,NNE,22,5.9,5.9,85,0.00,CLR,,0.00,WeatherDisplay:10.37,2013-11-21 23:01:00,
2013-11-21 17:02:00,38.1,34.0,29.00,North,0,5.8,5.8,85,0.00,CLR,,0.00,WeatherDisplay:10.37,2013-11-21 23:02:00,
2013-11-21 17:04:00,37.9,33.8,29.00,NW,315,5.8,5.8,85,0.00,CLR,,0.00,WeatherDisplay:10.37,2013-11-21 23:04:00,
2013-11-21 17:05:00,37.9,34.1,29.00,NNW,338,4.6,4.6,86,0.00,CLR,,0.00,WeatherDisplay:10.37,2013-11-21 23:05:00,
2013-11-21 17:06:00,37.9,34.1,29.00,NW,315,6.9,6.9,86,0.00,CLR,,0.00,WeatherDisplay:10.37,2013-11-21 23:06:00,
2013-11-21 17:07:00,37.9,34.1,29.00,NNW,338,6.9,6.9,86,0.00,CLR,,0.00,WeatherDisplay:10.37,2013-11-21 23:07:00,
2013-11-21 17:09:00,37.9,34.1,29.00,North,0,5.8,5.8,86,0.00,CLR,,0.00,WeatherDisplay:10.37,2013-11-21 23:09:00,
2013-11-21 17:10:00,37.9,34.1,29.00,NW,315,5.8,5.8,86,0.00,CLR,,0.00,WeatherDisplay:10.37,2013-11-21 23:10:00,
2013-11-21 17:11:00,37.9,34.1,29.00,NW,315,4.6,4.6,86,0.00,CLR,,0.00,WeatherDisplay:10.37,2013-11-21 23:11:00,
2013-11-21 17:12:00,37.9,34.1,29.00,North,0,5.6,5.6,86,0.00,CLR,,0.00,WeatherDisplay:10.37,2013-11-21 23:12:00,
2013-11-21 17:14:00,37.9,34.1,29.00,NNW,338,5.8,5.8,86,0.00,CLR,,0.00,WeatherDisplay:10.37,2013-11-21 23:14:00,
2013-11-21 17:15:00,37.9,34.1,29.00,NNW,338,5.8,5.8,86,0.00,CLR,,0.00,WeatherDisplay:10.37,2013-11-21 23:15:00,
2013-11-21 17:16:00,37.9,34.1,29.00,NW,315,5.8,5.8,86,0.00,CLR,,0.00,WeatherDisplay:10.37,2013-11-21 23:16:00,
2013-11-21 17:17:00,37.9,34.1,29.00,NW,315,5.8,5.8,86,0.00,CLR,,0.00,WeatherDisplay:10.37,2013-11-21 23:17:00,
2013-11-21 17:20:00,37.9,34.1,29.00,NNW,338,6.9,6.9,86,0.00,CLR,,0.00,WeatherDisplay:10.37,2013-11-21 23:20:00,
2013-11-21 17:21:00,37.8,33.9,29.00,NNW,338,5.8,5.8,86,0.00,CLR,,0.00,WeatherDisplay:10.37,2013-11-21 23:21:00,
2013-11-21 17:22:00,37.8,34.2,29.00,NNW,338,9.4,9.4,87,0.00,CLR,,0.00,WeatherDisplay:10.37,2013-11-21 23:22:00,
2013-11-21 17:25:00,37.8,34.2,29.00,NW,315,4.6,4.6,87,0.00,CLR,,0.00,WeatherDisplay:10.37,2013-11-21 23:25:00,
2013-11-21 17:26:00,37.8,34.2,29.00,North,0,8.1,8.1,87,0.00,CLR,,0.00,WeatherDisplay:10.37,2013-11-21 23:26:00,
2013-11-21 17:27:00,37.8,34.2,29.00,North,0,10.4,10.4,87,0.00,CLR,,0.00,WeatherDisplay:10.37,2013-11-21 23:27:00,
2013-11-21 17:28:00,37.8,34.2,29.00,North,0,7.4,7.4,87,0.00,CLR,,0.00,WeatherDisplay:10.37,2013-11-21 23:28:00,
2013-11-21 17:30:00,37.6,34.1,29.00,NNW,338,12.7,12.7,87,0.00,CLR,,0.00,WeatherDisplay:10.37,2013-11-21 23:30:00,
2013-11-21 17:31:00,37.6,34.1,29.00,NNW,338,8.1,8.1,87,0.00,CLR,,0.00,WeatherDisplay:10.37,2013-11-21 23:31:00,
2013-11-21 17:32:00,37.6,34.1,29.00,NNW,338,6.9,6.9,87,0.00,CLR,,0.00,WeatherDisplay:10.37,2013-11-21 23:32:00,
2013-11-21 17:33:00,37.6,34.1,29.00,WNW,292,6.9,6.9,87,0.00,CLR,,0.00,WeatherDisplay:10.37,2013-11-21 23:33:00,
2013-11-21 17:35:00,37.6,34.1,29.00,North,0,8.1,8.1,87,0.00,CLR,,0.00,WeatherDisplay:10.37,2013-11-21 23:35:00,
2013-11-21 17:36:00,37.6,34.1,29.00,NNW,338,8.1,8.1,87,0.00,CLR,,0.00,WeatherDisplay:10.37,2013-11-21 23:36:00,
2013-11-21 17:37:00,37.6,34.1,29.00,North,0,8.1,8.1,87,0.00,CLR,,0.00,WeatherDisplay:10.37,2013-11-21 23:37:00,
2013-11-21 17:38:00,37.6,34.1,29.00,NNW,338,6.9,6.9,87,0.00,CLR,,0.00,WeatherDisplay:10.37,2013-11-21 23:38:00,
2013-11-21 17:39:00,37.6,34.1,29.00,NNW,338,6.9,6.9,87,0.00,CLR,,0.00,WeatherDisplay:10.37,2013-11-21 23:39:00,
2013-11-21 17:40:00,37.6,34.1,29.03,North,0,5.4,5.4,87,0.00,CLR,,0.00,WeatherDisplay:10.37,2013-11-21 23:40:00,
2013-11-21 17:41:00,37.6,34.1,29.03,North,0,6.9,6.9,87,0.00,CLR,,0.00,WeatherDisplay:10.37,2013-11-21 23:41:00,
2013-11-21 17:42:00,37.6,34.1,29.03,NNW,338,6.4,6.4,87,0.00,CLR,,0.00,WeatherDisplay:10.37,2013-11-21 23:42:00,
2013-11-21 17:43:00,37.6,34.1,29.03,NNW,338,9.2,9.2,87,0.00,CLR,,0.00,WeatherDisplay:10.37,2013-11-21 23:43:00,
2013-11-21 17:44:00,37.6,34.1,29.03,North,0,8.1,8.1,87,0.00,CLR,,0.00,WeatherDisplay:10.37,2013-11-21 23:44:00,
2013-11-21 17:46:00,37.6,34.1,29.03,North,0,5.8,5.8,87,0.00,CLR,,0.00,WeatherDisplay:10.37,2013-11-21 23:46:00,
2013-11-21 17:48:00,37.6,34.1,29.03,North,0,9.2,9.2,87,0.00,CLR,,0.00,WeatherDisplay:10.37,2013-11-21 23:48:00,
2013-11-21 17:49:00,37.4,33.9,29.03,NW,315,8.1,8.1,87,0.00,CLR,,0.00,WeatherDisplay:10.37,2013-11-21 23:49:00,
2013-11-21 17:51:00,37.4,33.9,29.03,NNW,338,9.2,9.2,87,0.00,CLR,,0.00,WeatherDisplay:10.37,2013-11-21 23:51:00,
2013-11-21 17:53:00,37.4,33.9,29.03,North,0,9.2,9.2,87,0.00,CLR,,0.00,WeatherDisplay:10.37,2013-11-21 23:53:00,
2013-11-21 17:54:00,37.4,33.9,29.03,NW,315,9.2,9.2,87,0.00,CLR,,0.00,WeatherDisplay:10.37,2013-11-21 23:54:00,
2013-11-21 17:55:00,37.4,34.2,29.03,North,0,8.1,8.1,88,0.00,CLR,,0.00,WeatherDisplay:10.37,2013-11-21 23:55:00,
2013-11-21 17:56:00,37.4,34.2,29.03,NNW,338,6.9,6.9,88,0.00,CLR,,0.00,WeatherDisplay:10.37,2013-11-21 23:56:00,
2013-11-21 17:58:00,37.4,34.2,29.03,NNW,338,6.9,6.9,88,0.00,CLR,,0.00,WeatherDisplay:10.37,2013-11-21 23:58:00,
2013-11-21 17:59:00,37.4,34.2,29.03,North,0,6.9,6.9,88,0.00,CLR,,0.00,WeatherDisplay:10.37,2013-11-21 23:59:00,
2013-11-21 18:00:00,37.4,34.2,29.03,North,0,8.7,8.7,88,0.00,CLR,,0.00,WeatherDisplay:10.37,2013-11-22 00:00:00,
2013-11-21 18:01:00,37.4,34.2,29.03,North,0,9.2,9.2,88,0.00,CLR,,0.00,WeatherDisplay:10.37,2013-11-22 00:01:00,
2013-11-21 18:02:00,37.4,34.2,29.03,North,0,9.2,9.2,88,0.00,CLR,,0.00,WeatherDisplay:10.37,2013-11-22 00:02:00,
2013-11-21 18:03:00,37.4,34.2,29.03,NNW,338,9.2,9.2,88,0.00,CLR,,0.00,WeatherDisplay:10.37,2013-11-22 00:03:00,
2013-11-21 18:04:00,37.4,34.2,29.03,NNW,338,9.2,9.2,88,0.00,CLR,,0.00,WeatherDisplay:10.37,2013-11-22 00:04:00,
2013-11-21 18:05:00,37.4,34.2,29.03,NNE,22,9.2,9.2,88,0.00,CLR,,0.00,WeatherDisplay:10.37,2013-11-22 00:05:00,
2013-11-21 18:06:00,37.4,34.2,29.03,North,0,5.8,5.8,88,0.00,CLR,,0.00,WeatherDisplay:10.37,2013-11-22 00:06:00,
2013-11-21 18:07:00,37.4,34.2,29.03,NNW,338,6.2,6.2,88,0.00,CLR,,0.00,WeatherDisplay:10.37,2013-11-22 00:07:00,
2013-11-21 18:09:00,37.4,34.2,29.03,North,0,8.1,8.1,88,0.00,CLR,,0.00,WeatherDisplay:10.37,2013-11-22 00:09:00,
2013-11-21 18:10:00,37.4,34.2,29.03,NNE,22,5.8,5.8,88,0.00,CLR,,0.00,WeatherDisplay:10.37,2013-11-22 00:10:00,
2013-11-21 18:12:00,37.2,34.3,29.03,North,0,12.7,12.7,89,0.00,CLR,,0.00,WeatherDisplay:10.37,2013-11-22 00:12:00,
2013-11-21 18:13:00,37.2,34.3,29.03,NNW,338,12.7,12.7,89,0.00,CLR,,0.00,WeatherDisplay:10.37,2013-11-22 00:13:00,
2013-11-21 18:14:00,37.2,34.3,29.03,NNW,338,9.2,9.2,89,0.00,CLR,,0.00,WeatherDisplay:10.37,2013-11-22 00:14:00,
2013-11-21 18:15:00,37.2,34.3,29.03,North,0,8.5,8.5,89,0.00,CLR,,0.00,WeatherDisplay:10.37,2013-11-22 00:15:00,
2013-11-21 18:18:00,37.2,34.3,29.03,North,0,9.2,9.2,89,0.00,CLR,,0.00,WeatherDisplay:10.37,2013-11-22 00:18:00,
2013-11-21 18:19:00,37.2,34.3,29.03,NNW,338,5.9,5.9,89,0.00,CLR,,0.00,WeatherDisplay:10.37,2013-11-22 00:19:00,
2013-11-21 18:21:00,37.2,34.3,29.03,North,0,8.7,8.7,89,0.00,CLR,,0.00,WeatherDisplay:10.37,2013-11-22 00:21:00,
2013-11-21 18:23:00,37.2,34.3,29.03,North,0,10.4,10.4,89,0.00,CLR,,0.00,WeatherDisplay:10.37,2013-11-22 00:23:00,
2013-11-21 18:24:00,37.2,34.3,29.03,North,0,8.1,8.1,89,0.00,CLR,,0.00,WeatherDisplay:10.37,2013-11-22 00:24:00,
2013-11-21 18:25:00,37.0,34.1,29.03,NNW,338,8.1,8.1,89,0.00,CLR,,0.00,WeatherDisplay:10.37,2013-11-22 00:25:00,
2013-11-21 18:26:00,37.0,33.8,29.03,NW,315,8.1,8.1,88,0.00,CLR,,0.00,WeatherDisplay:10.37,2013-11-22 00:26:00,
2013-11-21 18:28:00,37.0,33.8,29.03,NNE,22,6.7,6.7,88,0.00,CLR,,0.00,WeatherDisplay:10.37,2013-11-22 00:28:00,
2013-11-21 18:29:00,37.0,33.8,29.03,North,0,8.1,8.1,88,0.00,CLR,,0.00,WeatherDisplay:10.37,2013-11-22 00:29:00,
2013-11-21 18:30:00,37.0,33.8,29.03,North,350,6.0,9.0,88,0.00,CLR,,0.00,WeatherDisplay:10.37,2013-11-22 00:30:00,
2013-11-21 18:31:00,37.0,33.8,29.03,WNW,292,4.6,4.6,88,0.00,CLR,,0.00,WeatherDisplay:10.37,2013-11-22 00:31:00,
2013-11-21 18:34:00,37.0,33.8,29.03,NNW,338,8.5,8.5,88,0.00,CLR,,0.00,WeatherDisplay:10.37,2013-11-22 00:34:00,
2013-11-21 18:35:00,37.0,33.8,29.03,NNW,338,7.6,7.6,88,0.00,CLR,,0.00,WeatherDisplay:10.37,2013-11-22 00:35:00,
2013-11-21 18:36:00,37.0,33.8,29.03,North,0,8.1,8.1,88,0.00,CLR,,0.00,WeatherDisplay:10.37,2013-11-22 00:36:00,
2013-11-21 18:39:00,37.0,33.8,29.03,NW,315,8.1,8.1,88,0.00,CLR,,0.00,WeatherDisplay:10.37,2013-11-22 00:39:00,
2013-11-21 18:40:00,37.0,33.8,29.03,NNW,338,8.1,8.1,88,0.00,CLR,,0.00,WeatherDisplay:10.37,2013-11-22 00:40:00,
2013-11-21 18:41:00,37.0,33.8,29.03,NNW,338,6.9,6.9,88,0.00,CLR,,0.00,WeatherDisplay:10.37,2013-11-22 00:41:00,
2013-11-21 18:44:00,37.0,33.8,29.03,North,0,5.8,5.8,88,0.00,CLR,,0.00,WeatherDisplay:10.37,2013-11-22 00:44:00,
2013-11-21 18:45:00,37.0,33.8,29.03,North,0,5.8,5.8,88,0.00,CLR,,0.00,WeatherDisplay:10.37,2013-11-22 00:45:00,
2013-11-21 18:46:00,37.0,33.8,29.03,NNW,338,7.1,7.1,88,0.00,CLR,,0.00,WeatherDisplay:10.37,2013-11-22 00:46:00,
2013-11-21 18:48:00,37.0,33.8,29.03,NNW,338,8.1,8.1,88,0.00,CLR,,0.00,WeatherDisplay:10.37,2013-11-22 00:48:00,
2013-11-21 18:50:00,37.0,33.8,29.03,NW,315,6.9,6.9,88,0.00,CLR,,0.00,WeatherDisplay:10.37,2013-11-22 00:50:00,
2013-11-21 18:51:00,37.0,33.8,29.03,NNW,338,8.1,8.1,88,0.00,CLR,,0.00,WeatherDisplay:10.37,2013-11-22 00:51:00,
2013-11-21 18:53:00,37.0,33.8,29.03,NNW,338,6.9,6.9,88,0.00,CLR,,0.00,WeatherDisplay:10.37,2013-11-22 00:53:00,
2013-11-21 18:55:00,37.0,33.8,29.03,NW,315,8.1,8.1,88,0.00,CLR,,0.00,WeatherDisplay:10.37,2013-11-22 00:55:00,
2013-11-21 18:56:00,37.0,33.8,29.03,North,0,8.1,8.1,88,0.00,CLR,,0.00,WeatherDisplay:10.37,2013-11-22 00:56:00,
2013-11-21 18:58:00,37.0,33.8,29.03,North,0,8.1,8.1,88,0.00,CLR,,0.00,WeatherDisplay:10.37,2013-11-22 00:58:00,
2013-11-21 19:00:00,37.0,33.8,29.03,NNW,338,5.4,5.4,88,0.00,CLR,,0.00,WeatherDisplay:10.37,2013-11-22 01:00:00,
2013-11-21 19:01:00,37.0,33.8,29.03,North,0,4.6,4.6,88,0.00,CLR,,0.00,WeatherDisplay:10.37,2013-11-22 01:01:00,
2013-11-21 19:04:00,37.0,33.8,29.03,North,0,8.1,8.1,88,0.00,CLR,,0.00,WeatherDisplay:10.37,2013-11-22 01:04:00,
2013-11-21 19:05:00,37.0,33.8,29.03,NW,315,6.4,6.4,88,0.00,CLR,,0.00,WeatherDisplay:10.37,2013-11-22 01:05:00,
2013-11-21 19:06:00,37.0,33.8,29.03,NW,315,6.2,6.2,88,0.00,CLR,,0.00,WeatherDisplay:10.37,2013-11-22 01:06:00,
2013-11-21 19:09:00,36.9,33.6,29.00,NNW,338,9.2,9.2,88,0.00,CLR,,0.00,WeatherDisplay:10.37,2013-11-22 01:09:00,
2013-11-21 19:10:00,36.9,33.6,29.00,NNW,338,8.7,8.7,88,0.00,CLR,,0.00,WeatherDisplay:10.37,2013-11-22 01:10:00,
2013-11-21 19:11:00,36.9,33.6,29.00,NNW,338,9.2,9.2,88,0.00,CLR,,0.00,WeatherDisplay:10.37,2013-11-22 01:11:00,
2013-11-21 19:12:00,36.9,33.6,29.00,North,0,9.2,9.2,88,0.00,CLR,,0.00,WeatherDisplay:10.37,2013-11-22 01:12:00,
2013-11-21 19:15:00,36.9,33.6,29.00,NW,315,10.4,10.4,88,0.00,CLR,,0.00,WeatherDisplay:10.37,2013-11-22 01:15:00,
2013-11-21 19:16:00,36.9,33.6,29.00,NW,315,8.7,8.7,88,0.00,CLR,,0.00,WeatherDisplay:10.37,2013-11-22 01:16:00,
2013-11-21 19:17:00,36.9,33.6,29.00,NW,315,10.4,10.4,88,0.00,CLR,,0.00,WeatherDisplay:10.37,2013-11-22 01:17:00,
2013-11-21 19:20:00,36.9,33.6,29.00,North,0,5.9,5.9,88,0.00,CLR,,0.00,WeatherDisplay:10.37,2013-11-22 01:20:00,
2013-11-21 19:21:00,36.9,33.6,29.00,North,0,5.8,5.8,88,0.00,CLR,,0.00,WeatherDisplay:10.37,2013-11-22 01:21:00,
2013-11-21 19:22:00,36.9,33.6,29.00,NNE,22,5.8,5.8,88,0.00,CLR,,0.00,WeatherDisplay:10.37,2013-11-22 01:22:00,
2013-11-21 19:25:00,36.9,33.6,29.03,North,0,8.1,8.1,88,0.00,CLR,,0.00,WeatherDisplay:10.37,2013-11-22 01:25:00,
2013-11-21 19:26:00,36.9,33.6,29.03,NNW,338,8.1,8.1,88,0.00,CLR,,0.00,WeatherDisplay:10.37,2013-11-22 01:26:00,
2013-11-21 19:27:00,36.9,33.6,29.03,NNE,22,5.8,5.8,88,0.00,CLR,,0.00,WeatherDisplay:10.37,2013-11-22 01:27:00,
2013-11-21 19:28:00,36.9,33.6,29.03,NNE,22,5.8,5.8,88,0.00,CLR,,0.00,WeatherDisplay:10.37,2013-11-22 01:28:00,
2013-11-21 19:30:00,36.9,33.6,29.03,North,0,8.1,8.1,88,0.00,CLR,,0.00,WeatherDisplay:10.37,2013-11-22 01:30:00,
2013-11-21 19:31:00,36.9,33.6,29.03,NNW,338,8.1,8.1,88,0.00,CLR,,0.00,WeatherDisplay:10.37,2013-11-22 01:31:00,
2013-11-21 19:32:00,36.9,33.6,29.03,North,0,8.1,8.1,88,0.00,CLR,,0.00,WeatherDisplay:10.37,2013-11-22 01:32:00,
2013-11-21 19:33:00,36.9,33.6,29.03,NNW,338,8.1,8.1,88,0.00,CLR,,0.00,WeatherDisplay:10.37,2013-11-22 01:33:00,
2013-11-21 19:36:00,36.9,33.6,29.03,NNW,338,9.2,9.2,88,0.00,CLR,,0.00,WeatherDisplay:10.37,2013-11-22 01:36:00,
2013-11-21 19:37:00,36.9,33.6,29.03,NNW,338,6.9,6.9,88,0.00,CLR,,0.00,WeatherDisplay:10.37,2013-11-22 01:37:00,
2013-11-21 19:38:00,36.9,33.6,29.03,North,0,6.9,6.9,88,0.00,CLR,,0.00,WeatherDisplay:10.37,2013-11-22 01:38:00,
2013-11-21 19:39:00,36.9,33.6,29.03,NNW,338,6.9,6.9,88,0.00,CLR,,0.00,WeatherDisplay:10.37,2013-11-22 01:39:00,
2013-11-21 19:41:00,36.9,33.6,29.03,NNW,338,5.8,5.8,88,0.00,CLR,,0.00,WeatherDisplay:10.37,2013-11-22 01:41:00,
2013-11-21 19:43:00,36.9,33.6,29.03,NW,315,4.6,4.6,88,0.00,CLR,,0.00,WeatherDisplay:10.37,2013-11-22 01:43:00,
2013-11-21 19:44:00,36.9,33.6,29.03,NNW,338,5.6,5.6,88,0.00,CLR,,0.00,WeatherDisplay:10.37,2013-11-22 01:44:00,
2013-11-21 19:46:00,36.9,33.9,29.03,NNW,338,9.2,9.2,89,0.00,CLR,,0.00,WeatherDisplay:10.37,2013-11-22 01:46:00,
2013-11-21 19:48:00,36.9,33.9,29.03,NW,315,5.9,5.9,89,0.00,CLR,,0.00,WeatherDisplay:10.37,2013-11-22 01:48:00,
2013-11-21 19:49:00,36.9,33.9,29.03,NNW,338,6.2,6.2,89,0.00,CLR,,0.00,WeatherDisplay:10.37,2013-11-22 01:49:00,
2013-11-21 19:51:00,36.9,33.9,29.03,WNW,292,9.2,9.2,89,0.00,CLR,,0.00,WeatherDisplay:10.37,2013-11-22 01:51:00,
2013-11-21 19:53:00,36.9,33.9,29.03,NW,315,8.1,8.1,89,0.00,CLR,,0.00,WeatherDisplay:10.37,2013-11-22 01:53:00,
2013-11-21 19:54:00,36.9,33.9,29.03,North,0,5.8,5.8,89,0.00,CLR,,0.00,WeatherDisplay:10.37,2013-11-22 01:54:00,
2013-11-21 19:55:00,36.9,33.9,29.06,NNW,338,5.8,5.8,89,0.00,CLR,,0.00,WeatherDisplay:10.37,2013-11-22 01:55:00,
2013-11-21 19:56:00,36.9,33.9,29.06,NW,315,4.6,4.6,89,0.00,CLR,,0.00,WeatherDisplay:10.37,2013-11-22 01:56:00,
2013-11-21 19:59:00,36.9,34.2,29.06,NW,315,4.9,4.9,90,0.00,CLR,,0.00,WeatherDisplay:10.37,2013-11-22 01:59:00,
2013-11-21 20:00:00,36.9,34.2,29.06,NNW,338,5.8,5.8,90,0.00,CLR,,0.00,WeatherDisplay:10.37,2013-11-22 02:00:00,
2013-11-21 20:01:00,36.9,34.2,29.06,North,0,5.8,5.8,90,0.00,CLR,,0.00,WeatherDisplay:10.37,2013-11-22 02:01:00,
2013-11-21 20:04:00,36.9,34.2,29.06,NNW,338,5.6,5.6,90,0.00,CLR,,0.00,WeatherDisplay:10.37,2013-11-22 02:04:00,
2013-11-21 20:05:00,36.7,34.3,29.06,North,0,8.1,8.1,91,0.00,CLR,,0.00,WeatherDisplay:10.37,2013-11-22 02:05:00,
2013-11-21 20:07:00,36.7,34.3,29.06,NW,315,7.4,7.4,91,0.00,CLR,,0.00,WeatherDisplay:10.37,2013-11-22 02:07:00,
2013-11-21 20:08:00,36.7,34.3,29.06,NW,315,6.9,6.9,91,0.00,CLR,,0.00,WeatherDisplay:10.37,2013-11-22 02:08:00,
2013-11-21 20:09:00,36.7,34.3,29.06,NNW,338,6.9,6.9,91,0.00,CLR,,0.00,WeatherDisplay:10.37,2013-11-22 02:09:00,
2013-11-21 20:13:00,36.7,34.6,29.09,NNW,338,5.8,5.8,92,0.00,CLR,,0.00,WeatherDisplay:10.37,2013-11-22 02:13:00,
2013-11-21 20:14:00,36.7,34.6,29.09,NNW,338,5.8,5.8,92,0.00,CLR,,0.00,WeatherDisplay:10.37,2013-11-22 02:14:00,
2013-11-21 20:18:00,36.7,34.8,29.09,NW,315,5.9,5.9,93,0.00,CLR,,0.00,WeatherDisplay:10.37,2013-11-22 02:18:00,
2013-11-21 20:19:00,36.7,34.8,29.09,North,0,6.9,6.9,93,0.00,CLR,,0.00,WeatherDisplay:10.37,2013-11-22 02:19:00,
2013-11-21 20:23:00,36.5,34.7,29.09,NNW,338,4.6,4.6,93,0.00,CLR,,0.00,WeatherDisplay:10.37,2013-11-22 02:23:00,
2013-11-21 20:24:00,36.5,34.7,29.09,WNW,292,5.8,5.8,93,0.00,CLR,,0.00,WeatherDisplay:10.37,2013-11-22 02:24:00,
2013-11-21 20:25:00,36.5,34.9,29.09,WNW,292,8.1,8.1,94,0.00,CLR,,0.00,WeatherDisplay:10.37,2013-11-22 02:25:00,
2013-11-21 20:29:00,36.3,34.8,29.09,West,270,9.2,9.2,94,0.00,CLR,,0.00,WeatherDisplay:10.37,2013-11-22 02:29:00,
2013-11-21 20:30:00,36.3,34.8,29.09,NW,315,9.2,9.2,94,0.00,CLR,,0.00,WeatherDisplay:10.37,2013-11-22 02:30:00,
2013-11-21 20:34:00,36.1,34.6,29.09,NNW,338,9.8,9.8,94,0.00,CLR,,0.00,WeatherDisplay:10.37,2013-11-22 02:34:00,
2013-11-21 20:35:00,36.1,34.6,29.09,NW,315,9.2,9.2,94,0.00,CLR,,0.00,WeatherDisplay:10.37,2013-11-22 02:35:00,
2013-11-21 20:36:00,36.0,34.4,29.09,North,0,6.2,6.2,94,0.00,CLR,,0.00,WeatherDisplay:10.37,2013-11-22 02:36:00,
2013-11-21 20:39:00,35.8,34.5,29.09,NNW,338,10.4,10.4,95,0.00,CLR,,0.00,WeatherDisplay:10.37,2013-11-22 02:39:00,
2013-11-21 20:40:00,35.8,34.5,29.09,NNW,338,10.4,10.4,95,0.00,CLR,,0.00,WeatherDisplay:10.37,2013-11-22 02:40:00,
2013-11-21 20:41:00,35.8,34.5,29.09,NW,315,8.1,8.1,95,0.00,CLR,,0.00,WeatherDisplay:10.37,2013-11-22 02:41:00,
2013-11-21 20:44:00,35.6,34.6,29.09,NNW,338,8.1,8.1,96,0.00,CLR,,0.00,WeatherDisplay:10.37,2013-11-22 02:44:00,
2013-11-21 20:45:00,35.6,34.6,29.09,NNW,338,8.1,8.1,96,0.00,CLR,,0.00,WeatherDisplay:10.37,2013-11-22 02:45:00,
2013-11-21 20:46:00,35.6,34.6,29.09,WNW,292,9.8,9.8,96,0.00,CLR,,0.00,WeatherDisplay:10.37,2013-11-22 02:46:00,
2013-11-21 20:49:00,35.6,34.6,29.09,NW,315,5.8,5.8,96,0.00,CLR,,0.00,WeatherDisplay:10.37,2013-11-22 02:49:00,
2013-11-21 20:50:00,35.6,34.6,29.09,NNW,327,6.0,10.0,96,0.00,CLR,,0.00,WeatherDisplay:10.37,2013-11-22 02:50:00,
2013-11-21 20:51:00,35.6,34.6,29.09,North,0,9.2,9.2,96,0.00,CLR,,0.00,WeatherDisplay:10.37,2013-11-22 02:51:00,
2013-11-21 20:52:00,35.4,34.7,29.09,North,0,4.7,4.7,97,0.00,CLR,,0.00,WeatherDisplay:10.37,2013-11-22 02:52:00,
2013-11-21 20:54:00,35.4,34.7,29.09,NNW,338,8.1,8.1,97,0.00,CLR,,0.00,WeatherDisplay:10.37,2013-11-22 02:54:00,
2013-11-21 20:55:00,35.4,34.7,29.09,NNW,338,8.7,8.7,97,0.00,CLR,,0.00,WeatherDisplay:10.37,2013-11-22 02:55:00,
2013-11-21 20:56:00,35.4,34.7,29.09,NNW,338,11.5,11.5,97,0.00,CLR,,0.00,WeatherDisplay:10.37,2013-11-22 02:56:00,
2013-11-21 20:57:00,35.4,34.7,29.09,NNW,338,8.1,8.1,97,0.00,CLR,,0.00,WeatherDisplay:10.37,2013-11-22 02:57:00,
2013-11-21 21:00:00,35.2,34.5,29.09,NW,315,8.1,8.1,97,0.00,CLR,,0.00,WeatherDisplay:10.37,2013-11-22 03:00:00,
2013-11-21 21:02:00,35.2,34.5,29.09,NW,315,8.1,8.1,97,0.00,CLR,,0.00,WeatherDisplay:10.37,2013-11-22 03:02:00,
2013-11-21 21:05:00,35.1,34.3,29.09,NW,315,8.1,8.1,97,0.00,CLR,,0.00,WeatherDisplay:10.37,2013-11-22 03:05:00,
2013-11-21 21:06:00,35.1,34.3,29.09,NW,315,8.7,8.7,97,0.00,CLR,,0.00,WeatherDisplay:10.37,2013-11-22 03:06:00,
2013-11-21 21:07:00,34.9,34.1,29.09,WNW,292,15.0,15.0,97,0.00,CLR,,0.00,WeatherDisplay:10.37,2013-11-22 03:07:00,
2013-11-21 21:08:00,34.9,34.1,29.09,NW,315,15.0,15.0,97,0.00,CLR,,0.01,WeatherDisplay:10.37,2013-11-22 03:08:00,
2013-11-21 21:10:00,34.7,33.9,29.09,NW,315,8.1,8.1,97,0.01,RA,,0.01,WeatherDisplay:10.37,2013-11-22 03:10:00,
2013-11-21 21:11:00,34.7,33.9,29.09,NW,315,8.1,8.1,97,0.01,RA,,0.01,WeatherDisplay:10.37,2013-11-22 03:11:00,
2013-11-21 21:13:00,34.7,34.2,29.09,WNW,292,8.1,8.1,98,0.01,RA,,0.01,WeatherDisplay:10.37,2013-11-22 03:13:00,
2013-11-21 21:14:00,34.7,34.2,29.09,NW,315,9.2,9.2,98,0.01,RA,,0.01,WeatherDisplay:10.37,2013-11-22 03:14:00,
2013-11-21 21:15:00,34.5,34.0,29.09,NW,315,10.4,10.4,98,0.01,RA,,0.01,WeatherDisplay:10.37,2013-11-22 03:15:00,
2013-11-21 21:16:00,34.5,34.0,29.09,NW,315,9.2,9.2,98,0.01,RA,,0.01,WeatherDisplay:10.37,2013-11-22 03:16:00,
2013-11-21 21:18:00,34.5,34.0,29.09,NNW,338,6.9,6.9,98,0.01,RA,,0.01,WeatherDisplay:10.37,2013-11-22 03:18:00,
2013-11-21 21:19:00,34.5,34.0,29.09,NW,315,8.7,8.7,98,0.01,RA,,0.01,WeatherDisplay:10.37,2013-11-22 03:19:00,
2013-11-21 21:21:00,34.5,34.0,29.09,WNW,292,9.2,9.2,98,0.01,CLR,,0.01,WeatherDisplay:10.37,2013-11-22 03:21:00,
2013-11-21 21:23:00,34.5,34.0,29.09,NNW,338,7.1,7.1,98,0.01,CLR,,0.01,WeatherDisplay:10.37,2013-11-22 03:23:00,
2013-11-21 21:24:00,34.5,34.0,29.09,North,0,6.9,6.9,98,0.01,CLR,,0.01,WeatherDisplay:10.37,2013-11-22 03:24:00,
2013-11-21 21:25:00,34.5,34.0,29.09,WNW,292,6.9,6.9,98,0.01,CLR,,0.01,WeatherDisplay:10.37,2013-11-22 03:25:00,
2013-11-21 21:26:00,34.3,33.8,29.09,NW,315,8.1,8.1,98,0.01,CLR,,0.01,WeatherDisplay:10.37,2013-11-22 03:26:00,
2013-11-21 21:27:00,34.3,33.8,29.09,NW,315,8.1,8.1,98,0.01,CLR,,0.01,WeatherDisplay:10.37,2013-11-22 03:27:00,
2013-11-21 21:28:00,34.3,33.8,29.09,NNW,338,8.1,8.1,98,0.01,CLR,,0.01,WeatherDisplay:10.37,2013-11-22 03:28:00,
2013-11-21 21:30:00,34.3,33.8,29.09,WNW,292,9.2,9.2,98,0.01,CLR,,0.01,WeatherDisplay:10.37,2013-11-22 03:30:00,
2013-11-21 21:31:00,34.3,33.8,29.09,NNW,338,10.4,10.4,98,0.01,CLR,,0.01,WeatherDisplay:10.37,2013-11-22 03:31:00,
2013-11-21 21:32:00,34.2,33.7,29.09,NW,315,10.4,10.4,98,0.01,CLR,,0.01,WeatherDisplay:10.37,2013-11-22 03:32:00,
2013-11-21 21:34:00,34.0,33.5,29.09,WNW,292,10.4,10.4,98,0.01,CLR,,0.01,WeatherDisplay:10.37,2013-11-22 03:34:00,
2013-11-21 21:35:00,34.0,33.5,29.09,NW,315,11.5,11.5,98,0.01,CLR,,0.01,WeatherDisplay:10.37,2013-11-22 03:35:00,
2013-11-21 21:36:00,34.0,33.5,29.09,NW,315,7.4,7.4,98,0.01,CLR,,0.01,WeatherDisplay:10.37,2013-11-22 03:36:00,
2013-11-21 21:37:00,34.0,33.5,29.09,NNW,338,6.9,6.9,98,0.01,CLR,,0.01,WeatherDisplay:10.37,2013-11-22 03:37:00,
2013-11-21 21:39:00,33.8,33.3,29.09,NW,315,5.8,5.8,98,0.01,CLR,,0.01,WeatherDisplay:10.37,2013-11-22 03:39:00,
2013-11-21 21:40:00,33.8,33.3,29.09,North,0,5.8,5.8,98,0.01,CLR,,0.01,WeatherDisplay:10.37,2013-11-22 03:40:00,
2013-11-21 21:41:00,33.8,33.3,29.09,NW,315,6.2,6.2,98,0.01,CLR,,0.01,WeatherDisplay:10.37,2013-11-22 03:41:00,
2013-11-21 21:42:00,33.8,33.3,29.09,NW,315,7.4,7.4,98,0.01,CLR,,0.01,WeatherDisplay:10.37,2013-11-22 03:42:00,
2013-11-21 21:44:00,33.6,33.1,29.09,NNW,338,10.4,10.4,98,0.01,CLR,,0.01,WeatherDisplay:10.37,2013-11-22 03:44:00,
2013-11-21 21:46:00,33.6,33.1,29.09,North,0,8.1,8.1,98,0.01,CLR,,0.01,WeatherDisplay:10.37,2013-11-22 03:46:00,
2013-11-21 21:47:00,33.6,33.1,29.09,NW,315,10.4,10.4,98,0.01,CLR,,0.01,WeatherDisplay:10.37,2013-11-22 03:47:00,
2013-11-21 21:49:00,33.4,32.9,29.09,NNW,338,8.1,8.1,98,0.01,CLR,,0.01,WeatherDisplay:10.37,2013-11-22 03:49:00,
2013-11-21 21:51:00,33.4,32.9,29.09,NNW,338,8.7,8.7,98,0.01,CLR,,0.01,WeatherDisplay:10.37,2013-11-22 03:51:00,
2013-11-21 21:52:00,33.4,32.9,29.09,NNW,338,10.4,10.4,98,0.01,CLR,,0.01,WeatherDisplay:10.37,2013-11-22 03:52:00,
2013-11-21 21:53:00,33.3,32.8,29.09,NW,315,10.4,10.4,98,0.01,CLR,,0.01,WeatherDisplay:10.37,2013-11-22 03:53:00,
2013-11-21 21:54:00,33.3,32.8,29.12,NW,315,10.4,10.4,98,0.01,CLR,,0.01,WeatherDisplay:10.37,2013-11-22 03:54:00,
2013-11-21 21:56:00,33.3,32.8,29.12,NW,315,6.9,6.9,98,0.01,CLR,,0.01,WeatherDisplay:10.37,2013-11-22 03:56:00,
2013-11-21 21:57:00,33.1,32.6,29.12,NNW,338,10.5,10.5,98,0.01,CLR,,0.01,WeatherDisplay:10.37,2013-11-22 03:57:00,
2013-11-21 21:58:00,33.1,32.6,29.12,North,0,10.4,10.4,98,0.01,CLR,,0.01,WeatherDisplay:10.37,2013-11-22 03:58:00,
2013-11-21 21:59:00,33.1,32.6,29.12,NW,315,10.4,10.4,98,0.01,CLR,,0.01,WeatherDisplay:10.37,2013-11-22 03:59:00,
2013-11-21 22:01:00,33.1,32.6,29.12,WNW,292,9.2,9.2,98,0.01,CLR,,0.01,WeatherDisplay:10.37,2013-11-22 04:01:00,
2013-11-21 22:03:00,32.9,32.4,29.12,WNW,292,11.5,11.5,98,0.01,CLR,,0.01,WeatherDisplay:10.37,2013-11-22 04:03:00,
2013-11-21 22:04:00,32.9,32.4,29.12,NW,315,8.1,8.1,98,0.01,CLR,,0.01,WeatherDisplay:10.37,2013-11-22 04:04:00,
2013-11-21 22:07:00,32.9,32.4,29.12,NW,315,12.7,12.7,98,0.01,CLR,,0.01,WeatherDisplay:10.37,2013-11-22 04:07:00,
2013-11-21 22:08:00,32.9,32.4,29.12,North,0,10.4,10.4,98,0.01,CLR,,0.01,WeatherDisplay:10.37,2013-11-22 04:08:00,
2013-11-21 22:09:00,32.9,32.4,29.12,NNW,338,9.7,9.7,98,0.01,CLR,,0.01,WeatherDisplay:10.37,2013-11-22 04:09:00,
2013-11-21 22:12:00,32.9,32.4,29.09,NNW,338,8.1,8.1,98,0.00,CLR,,0.01,WeatherDisplay:10.37,2013-11-22 04:12:00,
2013-11-21 22:13:00,32.9,32.4,29.09,West,270,5.8,5.8,98,0.00,CLR,,0.01,WeatherDisplay:10.37,2013-11-22 04:13:00,
2013-11-21 22:14:00,32.7,32.2,29.09,NW,315,5.8,5.8,98,0.00,CLR,,0.01,WeatherDisplay:10.37,2013-11-22 04:14:00,
2013-11-21 22:17:00,32.7,32.2,29.09,NW,315,6.9,6.9,98,0.00,CLR,,0.01,WeatherDisplay:10.37,2013-11-22 04:17:00,
2013-11-21 22:18:00,32.7,32.2,29.09,NNW,338,10.2,10.2,98,0.00,CLR,,0.01,WeatherDisplay:10.37,2013-11-22 04:18:00,
2013-11-21 22:19:00,32.7,32.2,29.09,NW,315,10.4,10.4,98,0.00,CLR,,0.01,WeatherDisplay:10.37,2013-11-22 04:19:00,
2013-11-21 22:20:00,32.7,32.2,29.09,NNW,338,10.4,10.4,98,0.00,CLR,,0.01,WeatherDisplay:10.37,2013-11-22 04:20:00,
2013-11-21 22:22:00,32.5,32.0,29.09,North,0,10.4,10.4,98,0.00,CLR,,0.01,WeatherDisplay:10.37,2013-11-22 04:22:00,
2013-11-21 22:23:00,32.5,32.0,29.09,NNW,338,10.4,10.4,98,0.00,CLR,,0.01,WeatherDisplay:10.37,2013-11-22 04:23:00,
2013-11-21 22:24:00,32.5,32.0,29.09,NW,315,8.5,8.5,98,0.00,CLR,,0.01,WeatherDisplay:10.37,2013-11-22 04:24:00,
2013-11-21 22:25:00,32.5,32.0,29.09,NW,315,8.1,8.1,98,0.00,CLR,,0.01,WeatherDisplay:10.37,2013-11-22 04:25:00,
2013-11-21 22:27:00,32.4,31.6,29.09,NW,315,8.1,8.1,97,0.00,CLR,,0.01,WeatherDisplay:10.37,2013-11-22 04:27:00,
2013-11-21 22:28:00,32.4,31.6,29.09,NNW,338,6.0,6.0,97,0.00,CLR,,0.01,WeatherDisplay:10.37,2013-11-22 04:28:00,
2013-11-21 22:29:00,32.4,31.6,29.09,NW,315,5.8,5.9,97,0.00,CLR,,0.01,WeatherDisplay:10.37,2013-11-22 04:29:00,
2013-11-21 22:30:00,32.4,31.6,29.09,NNW,338,6.9,6.9,97,0.00,CLR,,0.01,WeatherDisplay:10.37,2013-11-22 04:30:00,
2013-11-21 22:32:00,32.4,31.6,29.09,North,0,11.5,11.5,97,0.00,CLR,,0.01,WeatherDisplay:10.37,2013-11-22 04:32:00,
2013-11-21 22:34:00,32.2,31.4,29.09,WNW,292,9.2,9.2,97,0.00,CLR,,0.01,WeatherDisplay:10.37,2013-11-22 04:34:00,
2013-11-21 22:35:00,32.2,31.4,29.09,NNW,338,10.5,10.5,97,0.00,CLR,,0.01,WeatherDisplay:10.37,2013-11-22 04:35:00,
2013-11-21 22:37:00,32.2,31.4,29.09,NNW,338,6.9,6.9,97,0.00,CLR,,0.01,WeatherDisplay:10.37,2013-11-22 04:37:00,
2013-11-21 22:39:00,32.2,31.4,29.09,NNW,338,6.9,6.9,97,0.00,CLR,,0.01,WeatherDisplay:10.37,2013-11-22 04:39:00,
2013-11-21 22:40:00,32.2,31.4,29.12,NNW,338,7.4,7.4,97,0.00,CLR,,0.01,WeatherDisplay:10.37,2013-11-22 04:40:00,
2013-11-21 22:41:00,32.2,31.4,29.12,North,0,8.1,8.1,97,0.00,CLR,,0.01,WeatherDisplay:10.37,2013-11-22 04:41:00,
2013-11-21 22:42:00,32.2,31.4,29.12,NW,315,5.8,5.8,97,0.00,CLR,,0.01,WeatherDisplay:10.37,2013-11-22 04:42:00,
2013-11-21 22:44:00,32.2,31.4,29.12,NW,315,6.9,6.9,97,0.00,CLR,,0.01,WeatherDisplay:10.37,2013-11-22 04:44:00,
2013-11-21 22:45:00,32.2,31.4,29.12,NNW,338,6.9,6.9,97,0.00,CLR,,0.01,WeatherDisplay:10.37,2013-11-22 04:45:00,
2013-11-21 22:46:00,32.2,31.4,29.12,North,0,6.9,6.9,97,0.00,CLR,,0.01,WeatherDisplay:10.37,2013-11-22 04:46:00,
2013-11-21 22:47:00,32.2,31.4,29.12,WNW,292,6.9,6.9,97,0.00,CLR,,0.01,WeatherDisplay:10.37,2013-11-22 04:47:00,
2013-11-21 22:50:00,32.0,31.2,29.12,WNW,292,11.5,11.5,97,0.00,CLR,,0.01,WeatherDisplay:10.37,2013-11-22 04:50:00,
2013-11-21 22:51:00,32.0,31.2,29.12,NNW,338,9.2,9.2,97,0.00,CLR,,0.01,WeatherDisplay:10.37,2013-11-22 04:51:00,
2013-11-21 22:52:00,32.0,31.2,29.12,North,0,9.4,9.4,97,0.00,CLR,,0.01,WeatherDisplay:10.37,2013-11-22 04:52:00,
2013-11-21 22:55:00,31.8,30.8,29.12,North,0,11.5,11.5,96,0.00,CLR,,0.01,WeatherDisplay:10.37,2013-11-22 04:55:00,
2013-11-21 22:56:00,31.8,30.8,29.12,NW,315,8.1,8.1,96,0.00,CLR,,0.01,WeatherDisplay:10.37,2013-11-22 04:56:00,
2013-11-21 22:57:00,31.8,30.8,29.12,NNW,338,8.1,8.1,96,0.00,CLR,,0.01,WeatherDisplay:10.37,2013-11-22 04:57:00,
2013-11-21 23:00:00,31.6,30.6,29.12,NNW,338,9.2,9.2,96,0.00,CLR,,0.01,WeatherDisplay:10.37,2013-11-22 05:00:00,
2013-11-21 23:01:00,31.6,30.6,29.12,NNW,338,9.2,9.2,96,0.00,CLR,,0.01,WeatherDisplay:10.37,2013-11-22 05:01:00,
2013-11-21 23:02:00,31.6,30.6,29.12,NNW,338,10.4,10.4,96,0.00,CLR,,0.01,WeatherDisplay:10.37,2013-11-22 05:02:00,
2013-11-21 23:06:00,31.6,30.6,29.12,NNW,338,10.9,10.9,96,0.00,CLR,,0.01,WeatherDisplay:10.37,2013-11-22 05:06:00,
2013-11-21 23:07:00,31.5,30.2,29.12,NNW,338,11.5,11.5,95,0.00,CLR,,0.01,WeatherDisplay:10.37,2013-11-22 05:07:00,
2013-11-21 23:11:00,31.5,30.2,29.12,WNW,292,8.1,8.5,95,0.00,CLR,,0.01,WeatherDisplay:10.37,2013-11-22 05:11:00,
2013-11-21 23:12:00,31.5,30.2,29.12,NNW,338,8.5,8.5,95,0.00,CLR,,0.01,WeatherDisplay:10.37,2013-11-22 05:12:00,
2013-11-21 23:13:00,31.5,29.9,29.12,NNW,338,10.0,10.0,94,0.00,CLR,,0.01,WeatherDisplay:10.37,2013-11-22 05:13:00,
2013-11-21 23:16:00,31.5,29.9,29.12,NNW,338,8.5,8.5,94,0.00,CLR,,0.01,WeatherDisplay:10.37,2013-11-22 05:16:00,
2013-11-21 23:17:00,31.3,29.8,29.12,WNW,292,10.4,10.4,94,0.00,CLR,,0.01,WeatherDisplay:10.37,2013-11-22 05:17:00,
2013-11-21 23:18:00,31.3,29.8,29.12,NNW,338,6.9,6.9,94,0.00,CLR,,0.01,WeatherDisplay:10.37,2013-11-22 05:18:00,
2013-11-21 23:21:00,31.3,30.0,29.12,NW,315,8.7,8.7,95,0.00,CLR,,0.01,WeatherDisplay:10.37,2013-11-22 05:21:00,
2013-11-21 23:22:00,31.3,29.8,29.12,NNW,338,9.8,9.8,94,0.00,CLR,,0.01,WeatherDisplay:10.37,2013-11-22 05:22:00,
2013-11-21 23:23:00,31.3,29.8,29.12,NNW,338,9.2,9.2,94,0.00,CLR,,0.01,WeatherDisplay:10.37,2013-11-22 05:23:00,
2013-11-21 23:24:00,31.3,29.8,29.12,NNE,22,9.2,9.2,94,0.00,CLR,,0.01,WeatherDisplay:10.37,2013-11-22 05:24:00,
2013-11-21 23:26:00,31.3,29.8,29.12,North,0,8.1,8.1,94,0.00,CLR,,0.01,WeatherDisplay:10.37,2013-11-22 05:26:00,
2013-11-21 23:27:00,31.3,29.8,29.12,NW,315,8.1,8.1,94,0.00,CLR,,0.01,WeatherDisplay:10.37,2013-11-22 05:27:00,
2013-11-21 23:28:00,31.3,29.8,29.12,North,0,10.4,10.4,94,0.00,CLR,,0.01,WeatherDisplay:10.37,2013-11-22 05:28:00,
2013-11-21 23:30:00,31.1,29.6,29.12,NE,45,9.7,9.7,94,0.00,CLR,,0.01,WeatherDisplay:10.37,2013-11-22 05:30:00,
2013-11-21 23:32:00,31.1,29.6,29.12,NNW,338,8.1,8.1,94,0.00,CLR,,0.01,WeatherDisplay:10.37,2013-11-22 05:32:00,
2013-11-21 23:33:00,31.1,29.6,29.12,NNW,338,8.1,8.1,94,0.00,CLR,,0.01,WeatherDisplay:10.37,2013-11-22 05:33:00,
2013-11-21 23:35:00,31.1,29.6,29.12,NW,315,11.5,11.5,94,0.00,CLR,,0.01,WeatherDisplay:10.37,2013-11-22 05:35:00,
2013-11-21 23:37:00,31.1,29.0,29.12,NNW,338,13.8,13.8,92,0.00,CLR,,0.01,WeatherDisplay:10.37,2013-11-22 05:37:00,
2013-11-21 23:38:00,31.1,29.0,29.12,North,0,13.8,13.8,92,0.00,CLR,,0.01,WeatherDisplay:10.37,2013-11-22 05:38:00,
2013-11-21 23:39:00,31.1,29.0,29.12,WNW,292,9.2,9.2,92,0.00,CLR,,0.01,WeatherDisplay:10.37,2013-11-22 05:39:00,
2013-11-21 23:40:00,31.1,28.8,29.12,North,0,8.1,8.1,91,0.00,CLR,,0.01,WeatherDisplay:10.37,2013-11-22 05:40:00,
2013-11-21 23:42:00,31.1,28.8,29.12,WNW,292,10.4,10.4,91,0.00,CLR,,0.01,WeatherDisplay:10.37,2013-11-22 05:42:00,
2013-11-21 23:43:00,31.1,28.8,29.12,North,0,13.8,13.8,91,0.00,CLR,,0.01,WeatherDisplay:10.37,2013-11-22 05:43:00,
2013-11-21 23:44:00,31.1,28.8,29.12,North,0,13.8,13.8,91,0.00,CLR,,0.01,WeatherDisplay:10.37,2013-11-22 05:44:00,
2013-11-21 23:46:00,31.1,28.8,29.12,North,0,10.4,10.4,91,0.00,CLR,,0.01,WeatherDisplay:10.37,2013-11-22 05:46:00,
2013-11-21 23:47:00,31.1,28.5,29.12,NW,315,10.4,10.4,90,0.00,CLR,,0.01,WeatherDisplay:10.37,2013-11-22 05:47:00,
2013-11-21 23:48:00,31.1,28.5,29.12,NW,315,13.8,13.8,90,0.00,CLR,,0.01,WeatherDisplay:10.37,2013-11-22 05:48:00,
2013-11-21 23:49:00,31.1,28.5,29.12,NNW,338,13.8,13.8,90,0.00,CLR,,0.01,WeatherDisplay:10.37,2013-11-22 05:49:00,
2013-11-21 23:50:00,31.1,28.5,29.12,NNW,340,7.0,14.0,90,0.00,CLR,,0.01,WeatherDisplay:10.37,2013-11-22 05:50:00,
2013-11-21 23:51:00,31.1,28.2,29.12,NNW,338,6.9,6.9,89,0.00,CLR,,0.01,WeatherDisplay:10.37,2013-11-22 05:51:00,
2013-11-21 23:52:00,31.1,28.2,29.12,North,0,8.1,8.1,89,0.00,CLR,,0.01,WeatherDisplay:10.37,2013-11-22 05:52:00,
2013-11-21 23:54:00,31.1,28.2,29.12,NNW,338,6.9,6.9,89,0.00,CLR,,0.01,WeatherDisplay:10.37,2013-11-22 05:54:00,
2013-11-21 23:55:00,31.1,28.2,29.12,WNW,292,8.1,8.1,89,0.00,CLR,,0.01,WeatherDisplay:10.37,2013-11-22 05:55:00,
2013-11-21 23:56:00,31.1,28.2,29.12,NNW,338,11.5,11.5,89,0.00,CLR,,0.01,WeatherDisplay:10.37,2013-11-22 05:56:00,
2013-11-21 23:57:00,31.1,28.2,29.12,WNW,292,11.5,11.5,89,0.00,CLR,,0.01,WeatherDisplay:10.37,2013-11-22 05:57:00,
2013-11-21 23:59:00,31.1,28.2,29.12,NNW,338,11.5,11.5,89,0.00,CLR,,0.01,WeatherDisplay:10.37,2013-11-22 05:59:00,